Check out our new PWSWeather beta!
PWSweather.com
Personal Weather Stations
Station Observations

GerenaES 41860

Lat: 37.530965, Lon: -6.150384

Elevation: 120

Station Type: Vantage VUE

http://meteogerena.blogspot.com.es/

High Low Average
Temperature 84.7°F29.3°C 74.1°F23.4°C 79.8°F26.6°C
Dew Point 59.4°F15.2°C 52.2°F11.2°C 56.8°F13.8°C
Winds 10.0 mph 16.1 kmh 2.0 mph 3.2 kmh 7.0 mph NE11.3 kmh NE
Wind Gusts 20.0 mph32.2 kmh 3.0 mph4.8 kmh 12.0 mph19.3 kmh
Humidity 58% 34% 46%
Pressure 30.12 in1020.0 mb 30.06 in1017.9 mb -
Precipitation 0.00 in0.0 mm - -
Hour Temp Dew Point Humidity Winds Wind Gusts Pressure Precip Precip Rate Daily Precip Total
04:34 PM 83.5°F28.6°C 53.7°F12.1°C 36% 7.0 mph NE11.3 kmh NE 14.0 mph22.5 kmh 30.07 in1018.3 mb 0.00 in0.0 mm 0.00 in0.0 mm 0.00 in0.0 mm
04:35 PM 82.9°F28.3°C 53.2°F11.8°C 36% 7.0 mph NE11.3 kmh NE 14.0 mph22.5 kmh 30.07 in1018.3 mb 0.00 in0.0 mm 0.00 in0.0 mm 0.00 in0.0 mm
04:36 PM 82.8°F28.2°C 53.8°F12.1°C 37% 7.0 mph NE11.3 kmh NE 14.0 mph22.5 kmh 30.07 in1018.3 mb 0.00 in0.0 mm 0.00 in0.0 mm 0.00 in0.0 mm
04:37 PM 82.4°F28.0°C 53.5°F11.9°C 37% 8.0 mph NE12.9 kmh NE 14.0 mph22.5 kmh 30.07 in1018.3 mb 0.00 in0.0 mm 0.00 in0.0 mm 0.00 in0.0 mm
04:38 PM 82.2°F27.9°C 53.4°F11.9°C 37% 7.0 mph NE11.3 kmh NE 14.0 mph22.5 kmh 30.07 in1018.3 mb 0.00 in0.0 mm 0.00 in0.0 mm 0.00 in0.0 mm
04:39 PM 82.4°F28.0°C 53.5°F11.9°C 37% 7.0 mph NE11.3 kmh NE 14.0 mph22.5 kmh 30.07 in1018.3 mb 0.00 in0.0 mm 0.00 in0.0 mm 0.00 in0.0 mm
04:40 PM 82.2°F27.9°C 53.4°F11.9°C 37% 7.0 mph NE11.3 kmh NE 14.0 mph22.5 kmh 30.07 in1018.3 mb 0.00 in0.0 mm 0.00 in0.0 mm 0.00 in0.0 mm
04:41 PM 82.4°F28.0°C 53.5°F11.9°C 37% 7.0 mph NE11.3 kmh NE 14.0 mph22.5 kmh 30.07 in1018.3 mb 0.00 in0.0 mm 0.00 in0.0 mm 0.00 in0.0 mm
04:42 PM 82.6°F28.1°C 53.7°F12.1°C 37% 7.0 mph NE11.3 kmh NE 14.0 mph22.5 kmh 30.07 in1018.3 mb 0.00 in0.0 mm 0.00 in0.0 mm 0.00 in0.0 mm
04:43 PM 82.9°F28.3°C 54.0°F12.2°C 37% 7.0 mph NE11.3 kmh NE 14.0 mph22.5 kmh 30.07 in1018.3 mb 0.00 in0.0 mm 0.00 in0.0 mm 0.00 in0.0 mm
04:44 PM 83.5°F28.6°C 53.7°F12.1°C 36% 7.0 mph NE11.3 kmh NE 14.0 mph22.5 kmh 30.07 in1018.3 mb 0.00 in0.0 mm 0.00 in0.0 mm 0.00 in0.0 mm
04:45 PM 83.8°F28.8°C 54.0°F12.2°C 36% 7.0 mph NE11.3 kmh NE 13.0 mph20.9 kmh 30.07 in1018.3 mb 0.00 in0.0 mm 0.00 in0.0 mm 0.00 in0.0 mm
04:46 PM 84.0°F28.9°C 54.2°F12.3°C 36% 6.0 mph NE9.7 kmh NE 15.0 mph24.1 kmh 30.07 in1018.3 mb 0.00 in0.0 mm 0.00 in0.0 mm 0.00 in0.0 mm
04:47 PM 84.0°F28.9°C 53.4°F11.9°C 35% 6.0 mph NE9.7 kmh NE 16.0 mph25.7 kmh 30.07 in1018.3 mb 0.00 in0.0 mm 0.00 in0.0 mm 0.00 in0.0 mm
04:48 PM 84.0°F28.9°C 54.2°F12.3°C 36% 6.0 mph NE9.7 kmh NE 16.0 mph25.7 kmh 30.07 in1018.3 mb 0.00 in0.0 mm 0.00 in0.0 mm 0.00 in0.0 mm
04:49 PM 84.0°F28.9°C 54.2°F12.3°C 36% 6.0 mph NE9.7 kmh NE 16.0 mph25.7 kmh 30.07 in1018.3 mb 0.00 in0.0 mm 0.00 in0.0 mm 0.00 in0.0 mm
04:50 PM 83.8°F28.8°C 54.0°F12.2°C 36% 6.0 mph NE9.7 kmh NE 16.0 mph25.7 kmh 30.07 in1018.3 mb 0.00 in0.0 mm 0.00 in0.0 mm 0.00 in0.0 mm
04:51 PM 83.8°F28.8°C 53.3°F11.8°C 35% 6.0 mph NE9.7 kmh NE 16.0 mph25.7 kmh 30.07 in1018.3 mb 0.00 in0.0 mm 0.00 in0.0 mm 0.00 in0.0 mm
04:52 PM 83.7°F28.7°C 53.1°F11.7°C 35% 6.0 mph NE9.7 kmh NE 16.0 mph25.7 kmh 30.07 in1018.3 mb 0.00 in0.0 mm 0.00 in0.0 mm 0.00 in0.0 mm
04:53 PM 83.7°F28.7°C 53.9°F12.2°C 36% 6.0 mph NE9.7 kmh NE 16.0 mph25.7 kmh 30.07 in1018.3 mb 0.00 in0.0 mm 0.00 in0.0 mm 0.00 in0.0 mm
04:54 PM 83.3°F28.5°C 52.8°F11.6°C 35% 6.0 mph NE9.7 kmh NE 16.0 mph25.7 kmh 30.07 in1018.3 mb 0.00 in0.0 mm 0.00 in0.0 mm 0.00 in0.0 mm
04:55 PM 83.1°F28.4°C 53.4°F11.9°C 36% 6.0 mph NE9.7 kmh NE 16.0 mph25.7 kmh 30.07 in1018.3 mb 0.00 in0.0 mm 0.00 in0.0 mm 0.00 in0.0 mm
04:56 PM 83.1°F28.4°C 53.4°F11.9°C 36% 6.0 mph NE9.7 kmh NE 16.0 mph25.7 kmh 30.07 in1018.3 mb 0.00 in0.0 mm 0.00 in0.0 mm 0.00 in0.0 mm
04:57 PM 82.9°F28.3°C 53.2°F11.8°C 36% 7.0 mph NE11.3 kmh NE 15.0 mph24.1 kmh 30.07 in1018.3 mb 0.00 in0.0 mm 0.00 in0.0 mm 0.00 in0.0 mm
04:58 PM 82.9°F28.3°C 53.2°F11.8°C 36% 7.0 mph NE11.3 kmh NE 15.0 mph24.1 kmh 30.07 in1018.3 mb 0.00 in0.0 mm 0.00 in0.0 mm 0.00 in0.0 mm
04:59 PM 82.9°F28.3°C 53.2°F11.8°C 36% 7.0 mph NE11.3 kmh NE 15.0 mph24.1 kmh 30.07 in1018.3 mb 0.00 in0.0 mm 0.00 in0.0 mm 0.00 in0.0 mm
05:00 PM 82.9°F28.3°C 53.2°F11.8°C 36% 7.0 mph NE11.3 kmh NE 15.0 mph24.1 kmh 30.07 in1018.3 mb 0.00 in0.0 mm 0.00 in0.0 mm 0.00 in0.0 mm
05:01 PM 83.1°F28.4°C 53.4°F11.9°C 36% 7.0 mph NE11.3 kmh NE 15.0 mph24.1 kmh 30.07 in1018.3 mb 0.00 in0.0 mm 0.00 in0.0 mm 0.00 in0.0 mm
05:02 PM 83.5°F28.6°C 53.7°F12.1°C 36% 7.0 mph NE11.3 kmh NE 15.0 mph24.1 kmh 30.07 in1018.3 mb 0.00 in0.0 mm 0.00 in0.0 mm 0.00 in0.0 mm
05:03 PM 83.5°F28.6°C 53.7°F12.1°C 36% 7.0 mph NE11.3 kmh NE 15.0 mph24.1 kmh 30.07 in1018.3 mb 0.00 in0.0 mm 0.00 in0.0 mm 0.00 in0.0 mm
05:04 PM 83.5°F28.6°C 53.7°F12.1°C 36% 7.0 mph NE11.3 kmh NE 15.0 mph24.1 kmh 30.07 in1018.3 mb 0.00 in0.0 mm 0.00 in0.0 mm 0.00 in0.0 mm
05:05 PM 83.3°F28.5°C 53.6°F12.0°C 36% 7.0 mph NE11.3 kmh NE 15.0 mph24.1 kmh 30.07 in1018.3 mb 0.00 in0.0 mm 0.00 in0.0 mm 0.00 in0.0 mm
05:06 PM 83.1°F28.4°C 53.4°F11.9°C 36% 7.0 mph NE11.3 kmh NE 15.0 mph24.1 kmh 30.07 in1018.3 mb 0.00 in0.0 mm 0.00 in0.0 mm 0.00 in0.0 mm
05:07 PM 83.1°F28.4°C 53.4°F11.9°C 36% 8.0 mph NE12.9 kmh NE 15.0 mph24.1 kmh 30.07 in1018.3 mb 0.00 in0.0 mm 0.00 in0.0 mm 0.00 in0.0 mm
05:08 PM 82.9°F28.3°C 53.2°F11.8°C 36% 8.0 mph NE12.9 kmh NE 15.0 mph24.1 kmh 30.07 in1018.3 mb 0.00 in0.0 mm 0.00 in0.0 mm 0.00 in0.0 mm
05:09 PM 83.1°F28.4°C 53.4°F11.9°C 36% 8.0 mph NE12.9 kmh NE 15.0 mph24.1 kmh 30.07 in1018.3 mb 0.00 in0.0 mm 0.00 in0.0 mm 0.00 in0.0 mm
05:10 PM 83.1°F28.4°C 53.4°F11.9°C 36% 8.0 mph NE12.9 kmh NE 15.0 mph24.1 kmh 30.07 in1018.3 mb 0.00 in0.0 mm 0.00 in0.0 mm 0.00 in0.0 mm
05:11 PM 83.1°F28.4°C 53.4°F11.9°C 36% 8.0 mph NE12.9 kmh NE 14.0 mph22.5 kmh 30.07 in1018.3 mb 0.00 in0.0 mm 0.00 in0.0 mm 0.00 in0.0 mm
05:12 PM 83.1°F28.4°C 53.4°F11.9°C 36% 8.0 mph NE12.9 kmh NE 14.0 mph22.5 kmh 30.07 in1018.3 mb 0.00 in0.0 mm 0.00 in0.0 mm 0.00 in0.0 mm
05:13 PM 83.1°F28.4°C 53.4°F11.9°C 36% 8.0 mph NE12.9 kmh NE 14.0 mph22.5 kmh 30.07 in1018.3 mb 0.00 in0.0 mm 0.00 in0.0 mm 0.00 in0.0 mm
05:14 PM 82.9°F28.3°C 53.2°F11.8°C 36% 9.0 mph NE14.5 kmh NE 16.0 mph25.7 kmh 30.07 in1018.3 mb 0.00 in0.0 mm 0.00 in0.0 mm 0.00 in0.0 mm
05:15 PM 82.8°F28.2°C 53.8°F12.1°C 37% 9.0 mph NE14.5 kmh NE 16.0 mph25.7 kmh 30.07 in1018.3 mb 0.00 in0.0 mm 0.00 in0.0 mm 0.00 in0.0 mm
05:16 PM 82.6°F28.1°C 53.7°F12.1°C 37% 9.0 mph NE14.5 kmh NE 16.0 mph25.7 kmh 30.07 in1018.3 mb 0.00 in0.0 mm 0.00 in0.0 mm 0.00 in0.0 mm
05:17 PM 82.8°F28.2°C 53.8°F12.1°C 37% 9.0 mph NE14.5 kmh NE 16.0 mph25.7 kmh 30.07 in1018.3 mb 0.00 in0.0 mm 0.00 in0.0 mm 0.00 in0.0 mm
05:18 PM 82.8°F28.2°C 53.1°F11.7°C 36% 9.0 mph NE14.5 kmh NE 16.0 mph25.7 kmh 30.07 in1018.3 mb 0.00 in0.0 mm 0.00 in0.0 mm 0.00 in0.0 mm
05:19 PM 82.9°F28.3°C 53.2°F11.8°C 36% 9.0 mph NE14.5 kmh NE 16.0 mph25.7 kmh 30.07 in1018.3 mb 0.00 in0.0 mm 0.00 in0.0 mm 0.00 in0.0 mm
05:20 PM 82.9°F28.3°C 53.2°F11.8°C 36% 9.0 mph NE14.5 kmh NE 16.0 mph25.7 kmh 30.07 in1018.3 mb 0.00 in0.0 mm 0.00 in0.0 mm 0.00 in0.0 mm
05:21 PM 83.1°F28.4°C 53.4°F11.9°C 36% 9.0 mph NE14.5 kmh NE 16.0 mph25.7 kmh 30.07 in1018.3 mb 0.00 in0.0 mm 0.00 in0.0 mm 0.00 in0.0 mm
05:22 PM 83.3°F28.5°C 53.6°F12.0°C 36% 9.0 mph NE14.5 kmh NE 16.0 mph25.7 kmh 30.07 in1018.3 mb 0.00 in0.0 mm 0.00 in0.0 mm 0.00 in0.0 mm
05:23 PM 83.3°F28.5°C 53.6°F12.0°C 36% 8.0 mph NE12.9 kmh NE 16.0 mph25.7 kmh 30.07 in1018.3 mb 0.00 in0.0 mm 0.00 in0.0 mm 0.00 in0.0 mm
05:24 PM 83.3°F28.5°C 53.6°F12.0°C 36% 8.0 mph NE12.9 kmh NE 14.0 mph22.5 kmh 30.07 in1018.3 mb 0.00 in0.0 mm 0.00 in0.0 mm 0.00 in0.0 mm
05:26 PM 83.3°F28.5°C 53.6°F12.0°C 36% 8.0 mph NE12.9 kmh NE 16.0 mph25.7 kmh 30.07 in1018.3 mb 0.00 in0.0 mm 0.00 in0.0 mm 0.00 in0.0 mm
05:27 PM 83.1°F28.4°C 53.4°F11.9°C 36% 8.0 mph NE12.9 kmh NE 16.0 mph25.7 kmh 30.07 in1018.3 mb 0.00 in0.0 mm 0.00 in0.0 mm 0.00 in0.0 mm
05:28 PM 83.1°F28.4°C 53.4°F11.9°C 36% 8.0 mph NE12.9 kmh NE 16.0 mph25.7 kmh 30.07 in1018.3 mb 0.00 in0.0 mm 0.00 in0.0 mm 0.00 in0.0 mm
05:29 PM 83.3°F28.5°C 53.6°F12.0°C 36% 8.0 mph NE12.9 kmh NE 16.0 mph25.7 kmh 30.07 in1018.3 mb 0.00 in0.0 mm 0.00 in0.0 mm 0.00 in0.0 mm
05:30 PM 83.5°F28.6°C 53.7°F12.1°C 36% 8.0 mph NE12.9 kmh NE 16.0 mph25.7 kmh 30.07 in1018.3 mb 0.00 in0.0 mm 0.00 in0.0 mm 0.00 in0.0 mm
05:31 PM 83.7°F28.7°C 53.9°F12.2°C 36% 8.0 mph NE12.9 kmh NE 16.0 mph25.7 kmh 30.07 in1018.3 mb 0.00 in0.0 mm 0.00 in0.0 mm 0.00 in0.0 mm
05:32 PM 83.7°F28.7°C 53.9°F12.2°C 36% 8.0 mph NE12.9 kmh NE 16.0 mph25.7 kmh 30.07 in1018.3 mb 0.00 in0.0 mm 0.00 in0.0 mm 0.00 in0.0 mm
05:33 PM 83.8°F28.8°C 53.3°F11.8°C 35% 8.0 mph NE12.9 kmh NE 16.0 mph25.7 kmh 30.07 in1018.3 mb 0.00 in0.0 mm 0.00 in0.0 mm 0.00 in0.0 mm
05:34 PM 83.8°F28.8°C 53.3°F11.8°C 35% 8.0 mph NE12.9 kmh NE 16.0 mph25.7 kmh 30.07 in1018.3 mb 0.00 in0.0 mm 0.00 in0.0 mm 0.00 in0.0 mm
05:35 PM 83.7°F28.7°C 53.9°F12.2°C 36% 8.0 mph NE12.9 kmh NE 14.0 mph22.5 kmh 30.07 in1018.3 mb 0.00 in0.0 mm 0.00 in0.0 mm 0.00 in0.0 mm
05:36 PM 83.8°F28.8°C 54.0°F12.2°C 36% 8.0 mph NE12.9 kmh NE 12.0 mph19.3 kmh 30.07 in1018.3 mb 0.00 in0.0 mm 0.00 in0.0 mm 0.00 in0.0 mm
05:37 PM 84.0°F28.9°C 53.4°F11.9°C 35% 8.0 mph NE12.9 kmh NE 12.0 mph19.3 kmh 30.07 in1018.3 mb 0.00 in0.0 mm 0.00 in0.0 mm 0.00 in0.0 mm
05:38 PM 84.0°F28.9°C 53.4°F11.9°C 35% 7.0 mph NE11.3 kmh NE 12.0 mph19.3 kmh 30.07 in1018.3 mb 0.00 in0.0 mm 0.00 in0.0 mm 0.00 in0.0 mm
05:39 PM 84.0°F28.9°C 53.4°F11.9°C 35% 7.0 mph NE11.3 kmh NE 11.0 mph17.7 kmh 30.07 in1018.3 mb 0.00 in0.0 mm 0.00 in0.0 mm 0.00 in0.0 mm
05:40 PM 84.0°F28.9°C 53.4°F11.9°C 35% 7.0 mph NE11.3 kmh NE 12.0 mph19.3 kmh 30.07 in1018.3 mb 0.00 in0.0 mm 0.00 in0.0 mm 0.00 in0.0 mm
05:41 PM 83.8°F28.8°C 53.3°F11.8°C 35% 7.0 mph NE11.3 kmh NE 12.0 mph19.3 kmh 30.07 in1018.3 mb 0.00 in0.0 mm 0.00 in0.0 mm 0.00 in0.0 mm
05:42 PM 84.0°F28.9°C 53.4°F11.9°C 35% 7.0 mph NE11.3 kmh NE 12.0 mph19.3 kmh 30.07 in1018.3 mb 0.00 in0.0 mm 0.00 in0.0 mm 0.00 in0.0 mm
05:43 PM 83.8°F28.8°C 53.3°F11.8°C 35% 7.0 mph NE11.3 kmh NE 12.0 mph19.3 kmh 30.06 in1017.9 mb 0.00 in0.0 mm 0.00 in0.0 mm 0.00 in0.0 mm
05:44 PM 83.8°F28.8°C 53.3°F11.8°C 35% 6.0 mph NE9.7 kmh NE 12.0 mph19.3 kmh 30.07 in1018.3 mb 0.00 in0.0 mm 0.00 in0.0 mm 0.00 in0.0 mm
05:45 PM 83.8°F28.8°C 53.3°F11.8°C 35% 6.0 mph NE9.7 kmh NE 20.0 mph32.2 kmh 30.07 in1018.3 mb 0.00 in0.0 mm 0.00 in0.0 mm 0.00 in0.0 mm
05:46 PM 84.0°F28.9°C 52.6°F11.4°C 34% 6.0 mph NE9.7 kmh NE 20.0 mph32.2 kmh 30.07 in1018.3 mb 0.00 in0.0 mm 0.00 in0.0 mm 0.00 in0.0 mm
05:47 PM 84.4°F29.1°C 52.9°F11.6°C 34% 6.0 mph NE9.7 kmh NE 20.0 mph32.2 kmh 30.07 in1018.3 mb 0.00 in0.0 mm 0.00 in0.0 mm 0.00 in0.0 mm
05:48 PM 84.6°F29.2°C 53.1°F11.7°C 34% 6.0 mph NE9.7 kmh NE 20.0 mph32.2 kmh 30.07 in1018.3 mb 0.00 in0.0 mm 0.00 in0.0 mm 0.00 in0.0 mm
05:49 PM 84.7°F29.3°C 53.3°F11.8°C 34% 6.0 mph NE9.7 kmh NE 20.0 mph32.2 kmh 30.06 in1017.9 mb 0.00 in0.0 mm 0.00 in0.0 mm 0.00 in0.0 mm
05:50 PM 84.6°F29.2°C 53.1°F11.7°C 34% 7.0 mph NE11.3 kmh NE 20.0 mph32.2 kmh 30.07 in1018.3 mb 0.00 in0.0 mm 0.00 in0.0 mm 0.00 in0.0 mm
05:51 PM 84.6°F29.2°C 53.1°F11.7°C 34% 7.0 mph NE11.3 kmh NE 20.0 mph32.2 kmh 30.06 in1017.9 mb 0.00 in0.0 mm 0.00 in0.0 mm 0.00 in0.0 mm
05:52 PM 84.4°F29.1°C 52.9°F11.6°C 34% 7.0 mph NE11.3 kmh NE 20.0 mph32.2 kmh 30.07 in1018.3 mb 0.00 in0.0 mm 0.00 in0.0 mm 0.00 in0.0 mm
05:53 PM 84.4°F29.1°C 52.9°F11.6°C 34% 7.0 mph NE11.3 kmh NE 20.0 mph32.2 kmh 30.07 in1018.3 mb 0.00 in0.0 mm 0.00 in0.0 mm 0.00 in0.0 mm
05:54 PM 84.0°F28.9°C 52.6°F11.4°C 34% 7.0 mph NE11.3 kmh NE 20.0 mph32.2 kmh 30.07 in1018.3 mb 0.00 in0.0 mm 0.00 in0.0 mm 0.00 in0.0 mm
05:55 PM 83.8°F28.8°C 52.5°F11.4°C 34% 7.0 mph NE11.3 kmh NE 15.0 mph24.1 kmh 30.07 in1018.3 mb 0.00 in0.0 mm 0.00 in0.0 mm 0.00 in0.0 mm
05:56 PM 83.7°F28.7°C 53.1°F11.7°C 35% 8.0 mph NE12.9 kmh NE 15.0 mph24.1 kmh 30.06 in1017.9 mb 0.00 in0.0 mm 0.00 in0.0 mm 0.00 in0.0 mm
05:57 PM 83.7°F28.7°C 53.1°F11.7°C 35% 8.0 mph NE12.9 kmh NE 15.0 mph24.1 kmh 30.06 in1017.9 mb 0.00 in0.0 mm 0.00 in0.0 mm 0.00 in0.0 mm
05:58 PM 83.5°F28.6°C 52.9°F11.6°C 35% 8.0 mph NE12.9 kmh NE 15.0 mph24.1 kmh 30.06 in1017.9 mb 0.00 in0.0 mm 0.00 in0.0 mm 0.00 in0.0 mm
05:59 PM 83.5°F28.6°C 52.9°F11.6°C 35% 8.0 mph NE12.9 kmh NE 15.0 mph24.1 kmh 30.06 in1017.9 mb 0.00 in0.0 mm 0.00 in0.0 mm 0.00 in0.0 mm
06:00 PM 83.7°F28.7°C 53.1°F11.7°C 35% 8.0 mph NE12.9 kmh NE 15.0 mph24.1 kmh 30.06 in1017.9 mb 0.00 in0.0 mm 0.00 in0.0 mm 0.00 in0.0 mm
06:01 PM 83.7°F28.7°C 53.1°F11.7°C 35% 8.0 mph NE12.9 kmh NE 15.0 mph24.1 kmh 30.07 in1018.3 mb 0.00 in0.0 mm 0.00 in0.0 mm 0.00 in0.0 mm
06:02 PM 83.8°F28.8°C 53.3°F11.8°C 35% 8.0 mph NE12.9 kmh NE 13.0 mph20.9 kmh 30.06 in1017.9 mb 0.00 in0.0 mm 0.00 in0.0 mm 0.00 in0.0 mm
06:03 PM 84.0°F28.9°C 53.4°F11.9°C 35% 8.0 mph NE12.9 kmh NE 13.0 mph20.9 kmh 30.07 in1018.3 mb 0.00 in0.0 mm 0.00 in0.0 mm 0.00 in0.0 mm
06:04 PM 84.0°F28.9°C 53.4°F11.9°C 35% 8.0 mph NE12.9 kmh NE 13.0 mph20.9 kmh 30.06 in1017.9 mb 0.00 in0.0 mm 0.00 in0.0 mm 0.00 in0.0 mm
06:05 PM 84.0°F28.9°C 52.6°F11.4°C 34% 8.0 mph NE12.9 kmh NE 13.0 mph20.9 kmh 30.06 in1017.9 mb 0.00 in0.0 mm 0.00 in0.0 mm 0.00 in0.0 mm
06:06 PM 83.8°F28.8°C 52.5°F11.4°C 34% 8.0 mph NE12.9 kmh NE 13.0 mph20.9 kmh 30.06 in1017.9 mb 0.00 in0.0 mm 0.00 in0.0 mm 0.00 in0.0 mm
06:07 PM 83.7°F28.7°C 53.1°F11.7°C 35% 8.0 mph NE12.9 kmh NE 12.0 mph19.3 kmh 30.06 in1017.9 mb 0.00 in0.0 mm 0.00 in0.0 mm 0.00 in0.0 mm
06:08 PM 83.7°F28.7°C 53.1°F11.7°C 35% 7.0 mph NE11.3 kmh NE 12.0 mph19.3 kmh 30.06 in1017.9 mb 0.00 in0.0 mm 0.00 in0.0 mm 0.00 in0.0 mm
06:09 PM 83.8°F28.8°C 53.3°F11.8°C 35% 7.0 mph NE11.3 kmh NE 12.0 mph19.3 kmh 30.06 in1017.9 mb 0.00 in0.0 mm 0.00 in0.0 mm 0.00 in0.0 mm
06:10 PM 83.8°F28.8°C 53.3°F11.8°C 35% 7.0 mph NE11.3 kmh NE 12.0 mph19.3 kmh 30.06 in1017.9 mb 0.00 in0.0 mm 0.00 in0.0 mm 0.00 in0.0 mm
06:11 PM 83.7°F28.7°C 53.1°F11.7°C 35% 7.0 mph NE11.3 kmh NE 12.0 mph19.3 kmh 30.06 in1017.9 mb 0.00 in0.0 mm 0.00 in0.0 mm 0.00 in0.0 mm
06:12 PM 83.8°F28.8°C 53.3°F11.8°C 35% 7.0 mph NE11.3 kmh NE 14.0 mph22.5 kmh 30.07 in1018.3 mb 0.00 in0.0 mm 0.00 in0.0 mm 0.00 in0.0 mm
06:13 PM 83.8°F28.8°C 52.5°F11.4°C 34% 7.0 mph NE11.3 kmh NE 14.0 mph22.5 kmh 30.07 in1018.3 mb 0.00 in0.0 mm 0.00 in0.0 mm 0.00 in0.0 mm
06:14 PM 83.8°F28.8°C 52.5°F11.4°C 34% 7.0 mph NE11.3 kmh NE 14.0 mph22.5 kmh 30.07 in1018.3 mb 0.00 in0.0 mm 0.00 in0.0 mm 0.00 in0.0 mm
06:15 PM 83.7°F28.7°C 52.3°F11.3°C 34% 7.0 mph NE11.3 kmh NE 14.0 mph22.5 kmh 30.07 in1018.3 mb 0.00 in0.0 mm 0.00 in0.0 mm 0.00 in0.0 mm
06:16 PM 83.5°F28.6°C 52.2°F11.2°C 34% 6.0 mph NE9.7 kmh NE 14.0 mph22.5 kmh 30.07 in1018.3 mb 0.00 in0.0 mm 0.00 in0.0 mm 0.00 in0.0 mm
06:17 PM 83.5°F28.6°C 52.9°F11.6°C 35% 6.0 mph NE9.7 kmh NE 14.0 mph22.5 kmh 30.07 in1018.3 mb 0.00 in0.0 mm 0.00 in0.0 mm 0.00 in0.0 mm
06:18 PM 83.1°F28.4°C 52.6°F11.4°C 35% 6.0 mph NE9.7 kmh NE 14.0 mph22.5 kmh 30.07 in1018.3 mb 0.00 in0.0 mm 0.00 in0.0 mm 0.00 in0.0 mm
06:19 PM 82.9°F28.3°C 52.5°F11.4°C 35% 6.0 mph NE9.7 kmh NE 14.0 mph22.5 kmh 30.07 in1018.3 mb 0.00 in0.0 mm 0.00 in0.0 mm 0.00 in0.0 mm
06:20 PM 82.9°F28.3°C 52.5°F11.4°C 35% 6.0 mph NE9.7 kmh NE 14.0 mph22.5 kmh 30.07 in1018.3 mb 0.00 in0.0 mm 0.00 in0.0 mm 0.00 in0.0 mm
06:21 PM 82.9°F28.3°C 52.5°F11.4°C 35% 7.0 mph NE11.3 kmh NE 14.0 mph22.5 kmh 30.07 in1018.3 mb 0.00 in0.0 mm 0.00 in0.0 mm 0.00 in0.0 mm
06:22 PM 82.9°F28.3°C 52.5°F11.4°C 35% 7.0 mph NE11.3 kmh NE 14.0 mph22.5 kmh 30.07 in1018.3 mb 0.00 in0.0 mm 0.00 in0.0 mm 0.00 in0.0 mm
06:23 PM 82.9°F28.3°C 52.5°F11.4°C 35% 7.0 mph NE11.3 kmh NE 14.0 mph22.5 kmh 30.07 in1018.3 mb 0.00 in0.0 mm 0.00 in0.0 mm 0.00 in0.0 mm
06:24 PM 82.9°F28.3°C 53.2°F11.8°C 36% 7.0 mph NE11.3 kmh NE 14.0 mph22.5 kmh 30.07 in1018.3 mb 0.00 in0.0 mm 0.00 in0.0 mm 0.00 in0.0 mm
06:25 PM 83.1°F28.4°C 52.6°F11.4°C 35% 7.0 mph NE11.3 kmh NE 12.0 mph19.3 kmh 30.07 in1018.3 mb 0.00 in0.0 mm 0.00 in0.0 mm 0.00 in0.0 mm
06:26 PM 83.1°F28.4°C 52.6°F11.4°C 35% 7.0 mph NE11.3 kmh NE 12.0 mph19.3 kmh 30.07 in1018.3 mb 0.00 in0.0 mm 0.00 in0.0 mm 0.00 in0.0 mm
06:27 PM 83.3°F28.5°C 52.8°F11.6°C 35% 7.0 mph NE11.3 kmh NE 12.0 mph19.3 kmh 30.07 in1018.3 mb 0.00 in0.0 mm 0.00 in0.0 mm 0.00 in0.0 mm
06:28 PM 83.5°F28.6°C 52.9°F11.6°C 35% 7.0 mph NE11.3 kmh NE 11.0 mph17.7 kmh 30.07 in1018.3 mb 0.00 in0.0 mm 0.00 in0.0 mm 0.00 in0.0 mm
06:29 PM 83.5°F28.6°C 52.9°F11.6°C 35% 7.0 mph NE11.3 kmh NE 12.0 mph19.3 kmh 30.07 in1018.3 mb 0.00 in0.0 mm 0.00 in0.0 mm 0.00 in0.0 mm
06:30 PM 83.5°F28.6°C 52.9°F11.6°C 35% 7.0 mph NE11.3 kmh NE 12.0 mph19.3 kmh 30.07 in1018.3 mb 0.00 in0.0 mm 0.00 in0.0 mm 0.00 in0.0 mm
06:31 PM 83.5°F28.6°C 52.9°F11.6°C 35% 7.0 mph NE11.3 kmh NE 12.0 mph19.3 kmh 30.07 in1018.3 mb 0.00 in0.0 mm 0.00 in0.0 mm 0.00 in0.0 mm
06:32 PM 83.5°F28.6°C 52.9°F11.6°C 35% 7.0 mph NE11.3 kmh NE 12.0 mph19.3 kmh 30.07 in1018.3 mb 0.00 in0.0 mm 0.00 in0.0 mm 0.00 in0.0 mm
06:33 PM 83.5°F28.6°C 52.9°F11.6°C 35% 7.0 mph NE11.3 kmh NE 12.0 mph19.3 kmh 30.07 in1018.3 mb 0.00 in0.0 mm 0.00 in0.0 mm 0.00 in0.0 mm
06:34 PM 83.5°F28.6°C 52.9°F11.6°C 35% 7.0 mph NE11.3 kmh NE 12.0 mph19.3 kmh 30.07 in1018.3 mb 0.00 in0.0 mm 0.00 in0.0 mm 0.00 in0.0 mm
06:35 PM 83.7°F28.7°C 53.1°F11.7°C 35% 7.0 mph NE11.3 kmh NE 12.0 mph19.3 kmh 30.07 in1018.3 mb 0.00 in0.0 mm 0.00 in0.0 mm 0.00 in0.0 mm
06:36 PM 83.7°F28.7°C 53.1°F11.7°C 35% 7.0 mph NE11.3 kmh NE 12.0 mph19.3 kmh 30.07 in1018.3 mb 0.00 in0.0 mm 0.00 in0.0 mm 0.00 in0.0 mm
06:37 PM 83.8°F28.8°C 53.3°F11.8°C 35% 7.0 mph NE11.3 kmh NE 12.0 mph19.3 kmh 30.07 in1018.3 mb 0.00 in0.0 mm 0.00 in0.0 mm 0.00 in0.0 mm
06:38 PM 84.0°F28.9°C 53.4°F11.9°C 35% 7.0 mph NE11.3 kmh NE 12.0 mph19.3 kmh 30.07 in1018.3 mb 0.00 in0.0 mm 0.00 in0.0 mm 0.00 in0.0 mm
06:39 PM 84.0°F28.9°C 53.4°F11.9°C 35% 6.0 mph NE9.7 kmh NE 11.0 mph17.7 kmh 30.07 in1018.3 mb 0.00 in0.0 mm 0.00 in0.0 mm 0.00 in0.0 mm
06:40 PM 84.2°F29.0°C 53.6°F12.0°C 35% 6.0 mph NE9.7 kmh NE 11.0 mph17.7 kmh 30.07 in1018.3 mb 0.00 in0.0 mm 0.00 in0.0 mm 0.00 in0.0 mm
06:41 PM 84.4°F29.1°C 55.3°F12.9°C 37% 6.0 mph NE9.7 kmh NE 11.0 mph17.7 kmh 30.07 in1018.3 mb 0.00 in0.0 mm 0.00 in0.0 mm 0.00 in0.0 mm
06:42 PM 84.4°F29.1°C 56.0°F13.3°C 38% 6.0 mph NE9.7 kmh NE 11.0 mph17.7 kmh 30.07 in1018.3 mb 0.00 in0.0 mm 0.00 in0.0 mm 0.00 in0.0 mm
06:43 PM 84.4°F29.1°C 56.0°F13.3°C 38% 5.0 mph NE8.0 kmh NE 12.0 mph19.3 kmh 30.07 in1018.3 mb 0.00 in0.0 mm 0.00 in0.0 mm 0.00 in0.0 mm
06:44 PM 84.2°F29.0°C 55.8°F13.2°C 38% 5.0 mph NE8.0 kmh NE 12.0 mph19.3 kmh 30.07 in1018.3 mb 0.00 in0.0 mm 0.00 in0.0 mm 0.00 in0.0 mm
06:45 PM 83.8°F28.8°C 56.9°F13.8°C 40% 5.0 mph NE8.0 kmh NE 12.0 mph19.3 kmh 30.07 in1018.3 mb 0.00 in0.0 mm 0.00 in0.0 mm 0.00 in0.0 mm
06:46 PM 83.8°F28.8°C 57.6°F14.2°C 41% 5.0 mph NE8.0 kmh NE 12.0 mph19.3 kmh 30.07 in1018.3 mb 0.00 in0.0 mm 0.00 in0.0 mm 0.00 in0.0 mm
06:47 PM 84.0°F28.9°C 57.8°F14.3°C 41% 5.0 mph NE8.0 kmh NE 12.0 mph19.3 kmh 30.07 in1018.3 mb 0.00 in0.0 mm 0.00 in0.0 mm 0.00 in0.0 mm
06:48 PM 84.0°F28.9°C 57.8°F14.3°C 41% 4.0 mph NE6.4 kmh NE 13.0 mph20.9 kmh 30.07 in1018.3 mb 0.00 in0.0 mm 0.00 in0.0 mm 0.00 in0.0 mm
06:49 PM 83.7°F28.7°C 57.5°F14.2°C 41% 5.0 mph NE8.0 kmh NE 15.0 mph24.1 kmh 30.07 in1018.3 mb 0.00 in0.0 mm 0.00 in0.0 mm 0.00 in0.0 mm
06:50 PM 83.5°F28.6°C 57.3°F14.1°C 41% 5.0 mph NE8.0 kmh NE 15.0 mph24.1 kmh 30.07 in1018.3 mb 0.00 in0.0 mm 0.00 in0.0 mm 0.00 in0.0 mm
06:51 PM 83.3°F28.5°C 57.8°F14.3°C 42% 5.0 mph NE8.0 kmh NE 15.0 mph24.1 kmh 30.07 in1018.3 mb 0.00 in0.0 mm 0.00 in0.0 mm 0.00 in0.0 mm
06:52 PM 83.1°F28.4°C 58.3°F14.6°C 43% 5.0 mph NE8.0 kmh NE 15.0 mph24.1 kmh 30.07 in1018.3 mb 0.00 in0.0 mm 0.00 in0.0 mm 0.00 in0.0 mm
06:53 PM 82.8°F28.2°C 58.0°F14.4°C 43% 6.0 mph NE9.7 kmh NE 15.0 mph24.1 kmh 30.07 in1018.3 mb 0.00 in0.0 mm 0.00 in0.0 mm 0.00 in0.0 mm
06:54 PM 82.8°F28.2°C 58.6°F14.8°C 44% 6.0 mph NE9.7 kmh NE 15.0 mph24.1 kmh 30.07 in1018.3 mb 0.00 in0.0 mm 0.00 in0.0 mm 0.00 in0.0 mm
06:55 PM 82.4°F28.0°C 58.3°F14.6°C 44% 7.0 mph NE11.3 kmh NE 15.0 mph24.1 kmh 30.07 in1018.3 mb 0.00 in0.0 mm 0.00 in0.0 mm 0.00 in0.0 mm
06:56 PM 82.0°F27.8°C 58.0°F14.4°C 44% 7.0 mph NE11.3 kmh NE 15.0 mph24.1 kmh 30.07 in1018.3 mb 0.00 in0.0 mm 0.00 in0.0 mm 0.00 in0.0 mm
06:57 PM 81.9°F27.7°C 58.4°F14.7°C 45% 8.0 mph NE12.9 kmh NE 15.0 mph24.1 kmh 30.07 in1018.3 mb 0.00 in0.0 mm 0.00 in0.0 mm 0.00 in0.0 mm
06:58 PM 81.7°F27.6°C 58.3°F14.6°C 45% 8.0 mph NE12.9 kmh NE 15.0 mph24.1 kmh 30.07 in1018.3 mb 0.00 in0.0 mm 0.00 in0.0 mm 0.00 in0.0 mm
06:59 PM 81.5°F27.5°C 58.1°F14.5°C 45% 9.0 mph NE14.5 kmh NE 14.0 mph22.5 kmh 30.07 in1018.3 mb 0.00 in0.0 mm 0.00 in0.0 mm 0.00 in0.0 mm
07:00 PM 81.3°F27.4°C 57.9°F14.4°C 45% 9.0 mph NE14.5 kmh NE 14.0 mph22.5 kmh 30.07 in1018.3 mb 0.00 in0.0 mm 0.00 in0.0 mm 0.00 in0.0 mm
07:01 PM 81.5°F27.5°C 58.1°F14.5°C 45% 9.0 mph NE14.5 kmh NE 14.0 mph22.5 kmh 30.07 in1018.3 mb 0.00 in0.0 mm 0.00 in0.0 mm 0.00 in0.0 mm
07:02 PM 81.7°F27.6°C 58.3°F14.6°C 45% 9.0 mph NE14.5 kmh NE 14.0 mph22.5 kmh 30.07 in1018.3 mb 0.00 in0.0 mm 0.00 in0.0 mm 0.00 in0.0 mm
07:03 PM 81.7°F27.6°C 58.3°F14.6°C 45% 9.0 mph NE14.5 kmh NE 14.0 mph22.5 kmh 30.07 in1018.3 mb 0.00 in0.0 mm 0.00 in0.0 mm 0.00 in0.0 mm
07:04 PM 81.5°F27.5°C 58.1°F14.5°C 45% 9.0 mph NE14.5 kmh NE 18.0 mph29.0 kmh 30.07 in1018.3 mb 0.00 in0.0 mm 0.00 in0.0 mm 0.00 in0.0 mm
07:05 PM 81.3°F27.4°C 58.6°F14.8°C 46% 9.0 mph NE14.5 kmh NE 18.0 mph29.0 kmh 30.07 in1018.3 mb 0.00 in0.0 mm 0.00 in0.0 mm 0.00 in0.0 mm
07:06 PM 81.3°F27.4°C 58.6°F14.8°C 46% 9.0 mph NE14.5 kmh NE 18.0 mph29.0 kmh 30.07 in1018.3 mb 0.00 in0.0 mm 0.00 in0.0 mm 0.00 in0.0 mm
07:07 PM 81.3°F27.4°C 58.6°F14.8°C 46% 9.0 mph NE14.5 kmh NE 18.0 mph29.0 kmh 30.07 in1018.3 mb 0.00 in0.0 mm 0.00 in0.0 mm 0.00 in0.0 mm
07:08 PM 81.3°F27.4°C 58.6°F14.8°C 46% 9.0 mph NE14.5 kmh NE 18.0 mph29.0 kmh 30.07 in1018.3 mb 0.00 in0.0 mm 0.00 in0.0 mm 0.00 in0.0 mm
07:09 PM 81.3°F27.4°C 58.6°F14.8°C 46% 9.0 mph NE14.5 kmh NE 18.0 mph29.0 kmh 30.07 in1018.3 mb 0.00 in0.0 mm 0.00 in0.0 mm 0.00 in0.0 mm
07:10 PM 81.3°F27.4°C 58.6°F14.8°C 46% 9.0 mph NE14.5 kmh NE 18.0 mph29.0 kmh 30.07 in1018.3 mb 0.00 in0.0 mm 0.00 in0.0 mm 0.00 in0.0 mm
07:11 PM 81.3°F27.4°C 58.6°F14.8°C 46% 9.0 mph NE14.5 kmh NE 18.0 mph29.0 kmh 30.07 in1018.3 mb 0.00 in0.0 mm 0.00 in0.0 mm 0.00 in0.0 mm
07:12 PM 81.5°F27.5°C 58.7°F14.8°C 46% 9.0 mph NE14.5 kmh NE 18.0 mph29.0 kmh 30.07 in1018.3 mb 0.00 in0.0 mm 0.00 in0.0 mm 0.00 in0.0 mm
07:13 PM 81.5°F27.5°C 58.7°F14.8°C 46% 9.0 mph NE14.5 kmh NE 18.0 mph29.0 kmh 30.07 in1018.3 mb 0.00 in0.0 mm 0.00 in0.0 mm 0.00 in0.0 mm
07:14 PM 81.7°F27.6°C 58.9°F14.9°C 46% 9.0 mph NE14.5 kmh NE 15.0 mph24.1 kmh 30.07 in1018.3 mb 0.00 in0.0 mm 0.00 in0.0 mm 0.00 in0.0 mm
07:15 PM 81.7°F27.6°C 58.3°F14.6°C 45% 9.0 mph NE14.5 kmh NE 15.0 mph24.1 kmh 30.07 in1018.3 mb 0.00 in0.0 mm 0.00 in0.0 mm 0.00 in0.0 mm
07:16 PM 81.7°F27.6°C 58.9°F14.9°C 46% 9.0 mph NE14.5 kmh NE 15.0 mph24.1 kmh 30.07 in1018.3 mb 0.00 in0.0 mm 0.00 in0.0 mm 0.00 in0.0 mm
07:17 PM 81.5°F27.5°C 58.7°F14.8°C 46% 9.0 mph NE14.5 kmh NE 17.0 mph27.4 kmh 30.07 in1018.3 mb 0.00 in0.0 mm 0.00 in0.0 mm 0.00 in0.0 mm
07:18 PM 81.3°F27.4°C 58.6°F14.8°C 46% 9.0 mph NE14.5 kmh NE 17.0 mph27.4 kmh 30.07 in1018.3 mb 0.00 in0.0 mm 0.00 in0.0 mm 0.00 in0.0 mm
07:19 PM 81.3°F27.4°C 58.6°F14.8°C 46% 9.0 mph NE14.5 kmh NE 17.0 mph27.4 kmh 30.07 in1018.3 mb 0.00 in0.0 mm 0.00 in0.0 mm 0.00 in0.0 mm
07:20 PM 81.3°F27.4°C 59.2°F15.1°C 47% 9.0 mph NE14.5 kmh NE 17.0 mph27.4 kmh 30.07 in1018.3 mb 0.00 in0.0 mm 0.00 in0.0 mm 0.00 in0.0 mm
07:21 PM 81.3°F27.4°C 59.2°F15.1°C 47% 9.0 mph NE14.5 kmh NE 17.0 mph27.4 kmh 30.07 in1018.3 mb 0.00 in0.0 mm 0.00 in0.0 mm 0.00 in0.0 mm
07:22 PM 81.3°F27.4°C 59.2°F15.1°C 47% 9.0 mph NE14.5 kmh NE 17.0 mph27.4 kmh 30.07 in1018.3 mb 0.00 in0.0 mm 0.00 in0.0 mm 0.00 in0.0 mm
07:23 PM 81.5°F27.5°C 59.3°F15.2°C 47% 9.0 mph NE14.5 kmh NE 17.0 mph27.4 kmh 30.07 in1018.3 mb 0.00 in0.0 mm 0.00 in0.0 mm 0.00 in0.0 mm
07:24 PM 81.5°F27.5°C 58.7°F14.8°C 46% 9.0 mph NE14.5 kmh NE 17.0 mph27.4 kmh 30.07 in1018.3 mb 0.00 in0.0 mm 0.00 in0.0 mm 0.00 in0.0 mm
07:25 PM 81.3°F27.4°C 58.6°F14.8°C 46% 9.0 mph NE14.5 kmh NE 17.0 mph27.4 kmh 30.07 in1018.3 mb 0.00 in0.0 mm 0.00 in0.0 mm 0.00 in0.0 mm
07:26 PM 81.3°F27.4°C 58.6°F14.8°C 46% 9.0 mph NE14.5 kmh NE 17.0 mph27.4 kmh 30.07 in1018.3 mb 0.00 in0.0 mm 0.00 in0.0 mm 0.00 in0.0 mm
07:27 PM 81.3°F27.4°C 59.2°F15.1°C 47% 9.0 mph NE14.5 kmh NE 15.0 mph24.1 kmh 30.07 in1018.3 mb 0.00 in0.0 mm 0.00 in0.0 mm 0.00 in0.0 mm
07:28 PM 81.3°F27.4°C 59.2°F15.1°C 47% 9.0 mph NE14.5 kmh NE 14.0 mph22.5 kmh 30.07 in1018.3 mb 0.00 in0.0 mm 0.00 in0.0 mm 0.00 in0.0 mm
07:29 PM 81.1°F27.3°C 59.0°F15.0°C 47% 9.0 mph NE14.5 kmh NE 16.0 mph25.7 kmh 30.07 in1018.3 mb 0.00 in0.0 mm 0.00 in0.0 mm 0.00 in0.0 mm
07:30 PM 81.1°F27.3°C 59.0°F15.0°C 47% 9.0 mph NE14.5 kmh NE 16.0 mph25.7 kmh 30.07 in1018.3 mb 0.00 in0.0 mm 0.00 in0.0 mm 0.00 in0.0 mm
07:31 PM 81.0°F27.2°C 58.8°F14.9°C 47% 9.0 mph NE14.5 kmh NE 17.0 mph27.4 kmh 30.07 in1018.3 mb 0.00 in0.0 mm 0.00 in0.0 mm 0.00 in0.0 mm
07:32 PM 80.8°F27.1°C 58.7°F14.8°C 47% 9.0 mph NE14.5 kmh NE 17.0 mph27.4 kmh 30.07 in1018.3 mb 0.00 in0.0 mm 0.00 in0.0 mm 0.00 in0.0 mm
07:33 PM 80.6°F27.0°C 58.5°F14.7°C 47% 9.0 mph NE14.5 kmh NE 17.0 mph27.4 kmh 30.07 in1018.3 mb 0.00 in0.0 mm 0.00 in0.0 mm 0.00 in0.0 mm
07:34 PM 80.4°F26.9°C 58.9°F14.9°C 48% 9.0 mph NE14.5 kmh NE 17.0 mph27.4 kmh 30.07 in1018.3 mb 0.00 in0.0 mm 0.00 in0.0 mm 0.00 in0.0 mm
07:35 PM 80.4°F26.9°C 58.9°F14.9°C 48% 9.0 mph NE14.5 kmh NE 17.0 mph27.4 kmh 30.07 in1018.3 mb 0.00 in0.0 mm 0.00 in0.0 mm 0.00 in0.0 mm
07:36 PM 80.4°F26.9°C 58.9°F14.9°C 48% 9.0 mph NE14.5 kmh NE 17.0 mph27.4 kmh 30.07 in1018.3 mb 0.00 in0.0 mm 0.00 in0.0 mm 0.00 in0.0 mm
07:37 PM 80.2°F26.8°C 58.8°F14.9°C 48% 10.0 mph NE16.1 kmh NE 17.0 mph27.4 kmh 30.07 in1018.3 mb 0.00 in0.0 mm 0.00 in0.0 mm 0.00 in0.0 mm
07:38 PM 80.2°F26.8°C 58.8°F14.9°C 48% 10.0 mph NE16.1 kmh NE 17.0 mph27.4 kmh 30.07 in1018.3 mb 0.00 in0.0 mm 0.00 in0.0 mm 0.00 in0.0 mm
07:39 PM 80.2°F26.8°C 58.8°F14.9°C 48% 10.0 mph NE16.1 kmh NE 17.0 mph27.4 kmh 30.07 in1018.3 mb 0.00 in0.0 mm 0.00 in0.0 mm 0.00 in0.0 mm
07:40 PM 80.4°F26.9°C 58.9°F14.9°C 48% 10.0 mph NE16.1 kmh NE 17.0 mph27.4 kmh 30.07 in1018.3 mb 0.00 in0.0 mm 0.00 in0.0 mm 0.00 in0.0 mm
07:41 PM 80.4°F26.9°C 58.9°F14.9°C 48% 10.0 mph NE16.1 kmh NE 17.0 mph27.4 kmh 30.07 in1018.3 mb 0.00 in0.0 mm 0.00 in0.0 mm 0.00 in0.0 mm
07:42 PM 80.6°F27.0°C 59.1°F15.1°C 48% 10.0 mph NE16.1 kmh NE 17.0 mph27.4 kmh 30.07 in1018.3 mb 0.00 in0.0 mm 0.00 in0.0 mm 0.00 in0.0 mm
07:43 PM 80.4°F26.9°C 58.9°F14.9°C 48% 10.0 mph NE16.1 kmh NE 15.0 mph24.1 kmh 30.07 in1018.3 mb 0.00 in0.0 mm 0.00 in0.0 mm 0.00 in0.0 mm
07:44 PM 80.6°F27.0°C 59.1°F15.1°C 48% 10.0 mph NE16.1 kmh NE 15.0 mph24.1 kmh 30.08 in1018.6 mb 0.00 in0.0 mm 0.00 in0.0 mm 0.00 in0.0 mm
07:45 PM 80.6°F27.0°C 59.1°F15.1°C 48% 10.0 mph NE16.1 kmh NE 15.0 mph24.1 kmh 30.08 in1018.6 mb 0.00 in0.0 mm 0.00 in0.0 mm 0.00 in0.0 mm
07:46 PM 80.6°F27.0°C 59.1°F15.1°C 48% 9.0 mph NE14.5 kmh NE 15.0 mph24.1 kmh 30.08 in1018.6 mb 0.00 in0.0 mm 0.00 in0.0 mm 0.00 in0.0 mm
07:47 PM 80.4°F26.9°C 58.9°F14.9°C 48% 9.0 mph NE14.5 kmh NE 14.0 mph22.5 kmh 30.08 in1018.6 mb 0.00 in0.0 mm 0.00 in0.0 mm 0.00 in0.0 mm
07:48 PM 80.6°F27.0°C 59.1°F15.1°C 48% 9.0 mph NE14.5 kmh NE 13.0 mph20.9 kmh 30.08 in1018.6 mb 0.00 in0.0 mm 0.00 in0.0 mm 0.00 in0.0 mm
07:49 PM 80.6°F27.0°C 59.1°F15.1°C 48% 9.0 mph NE14.5 kmh NE 13.0 mph20.9 kmh 30.08 in1018.6 mb 0.00 in0.0 mm 0.00 in0.0 mm 0.00 in0.0 mm
07:50 PM 80.8°F27.1°C 59.3°F15.2°C 48% 8.0 mph NE12.9 kmh NE 13.0 mph20.9 kmh 30.08 in1018.6 mb 0.00 in0.0 mm 0.00 in0.0 mm 0.00 in0.0 mm
07:51 PM 80.6°F27.0°C 59.1°F15.1°C 48% 8.0 mph NE12.9 kmh NE 13.0 mph20.9 kmh 30.08 in1018.6 mb 0.00 in0.0 mm 0.00 in0.0 mm 0.00 in0.0 mm
07:52 PM 80.8°F27.1°C 59.3°F15.2°C 48% 8.0 mph NE12.9 kmh NE 13.0 mph20.9 kmh 30.08 in1018.6 mb 0.00 in0.0 mm 0.00 in0.0 mm 0.00 in0.0 mm
07:53 PM 80.8°F27.1°C 59.3°F15.2°C 48% 8.0 mph NE12.9 kmh NE 13.0 mph20.9 kmh 30.08 in1018.6 mb 0.00 in0.0 mm 0.00 in0.0 mm 0.00 in0.0 mm
07:54 PM 80.6°F27.0°C 59.1°F15.1°C 48% 8.0 mph NE12.9 kmh NE 13.0 mph20.9 kmh 30.08 in1018.6 mb 0.00 in0.0 mm 0.00 in0.0 mm 0.00 in0.0 mm
07:55 PM 80.4°F26.9°C 58.9°F14.9°C 48% 8.0 mph NE12.9 kmh NE 14.0 mph22.5 kmh 30.08 in1018.6 mb 0.00 in0.0 mm 0.00 in0.0 mm 0.00 in0.0 mm
07:56 PM 80.4°F26.9°C 58.9°F14.9°C 48% 8.0 mph NE12.9 kmh NE 14.0 mph22.5 kmh 30.08 in1018.6 mb 0.00 in0.0 mm 0.00 in0.0 mm 0.00 in0.0 mm
07:57 PM 80.4°F26.9°C 58.9°F14.9°C 48% 8.0 mph NE12.9 kmh NE 14.0 mph22.5 kmh 30.08 in1018.6 mb 0.00 in0.0 mm 0.00 in0.0 mm 0.00 in0.0 mm
07:58 PM 80.2°F26.8°C 58.8°F14.9°C 48% 8.0 mph NE12.9 kmh NE 14.0 mph22.5 kmh 30.08 in1018.6 mb 0.00 in0.0 mm 0.00 in0.0 mm 0.00 in0.0 mm
07:59 PM 80.1°F26.7°C 59.2°F15.1°C 49% 8.0 mph NE12.9 kmh NE 16.0 mph25.7 kmh 30.08 in1018.6 mb 0.00 in0.0 mm 0.00 in0.0 mm 0.00 in0.0 mm
08:00 PM 79.9°F26.6°C 59.0°F15.0°C 49% 8.0 mph NE12.9 kmh NE 16.0 mph25.7 kmh 30.08 in1018.6 mb 0.00 in0.0 mm 0.00 in0.0 mm 0.00 in0.0 mm
08:01 PM 79.7°F26.5°C 58.8°F14.9°C 49% 8.0 mph NE12.9 kmh NE 16.0 mph25.7 kmh 30.08 in1018.6 mb 0.00 in0.0 mm 0.00 in0.0 mm 0.00 in0.0 mm
08:02 PM 79.5°F26.4°C 58.7°F14.8°C 49% 8.0 mph NE12.9 kmh NE 16.0 mph25.7 kmh 30.08 in1018.6 mb 0.00 in0.0 mm 0.00 in0.0 mm 0.00 in0.0 mm
08:03 PM 79.5°F26.4°C 58.7°F14.8°C 49% 8.0 mph NE12.9 kmh NE 16.0 mph25.7 kmh 30.08 in1018.6 mb 0.00 in0.0 mm 0.00 in0.0 mm 0.00 in0.0 mm
08:04 PM 79.5°F26.4°C 59.2°F15.1°C 50% 8.0 mph NE12.9 kmh NE 16.0 mph25.7 kmh 30.08 in1018.6 mb 0.00 in0.0 mm 0.00 in0.0 mm 0.00 in0.0 mm
08:05 PM 79.5°F26.4°C 58.7°F14.8°C 49% 8.0 mph NE12.9 kmh NE 16.0 mph25.7 kmh 30.08 in1018.6 mb 0.00 in0.0 mm 0.00 in0.0 mm 0.00 in0.0 mm
08:06 PM 79.5°F26.4°C 58.7°F14.8°C 49% 9.0 mph NE14.5 kmh NE 16.0 mph25.7 kmh 30.08 in1018.6 mb 0.00 in0.0 mm 0.00 in0.0 mm 0.00 in0.0 mm
08:07 PM 79.5°F26.4°C 59.2°F15.1°C 50% 9.0 mph NE14.5 kmh NE 16.0 mph25.7 kmh 30.08 in1018.6 mb 0.00 in0.0 mm 0.00 in0.0 mm 0.00 in0.0 mm
08:08 PM 79.7°F26.5°C 58.8°F14.9°C 49% 9.0 mph NE14.5 kmh NE 16.0 mph25.7 kmh 30.08 in1018.6 mb 0.00 in0.0 mm 0.00 in0.0 mm 0.00 in0.0 mm
08:09 PM 79.5°F26.4°C 58.7°F14.8°C 49% 9.0 mph NE14.5 kmh NE 15.0 mph24.1 kmh 30.08 in1018.6 mb 0.00 in0.0 mm 0.00 in0.0 mm 0.00 in0.0 mm
08:10 PM 79.5°F26.4°C 58.7°F14.8°C 49% 9.0 mph NE14.5 kmh NE 13.0 mph20.9 kmh 30.08 in1018.6 mb 0.00 in0.0 mm 0.00 in0.0 mm 0.00 in0.0 mm
08:11 PM 79.5°F26.4°C 58.7°F14.8°C 49% 9.0 mph NE14.5 kmh NE 12.0 mph19.3 kmh 30.08 in1018.6 mb 0.00 in0.0 mm 0.00 in0.0 mm 0.00 in0.0 mm
08:12 PM 79.5°F26.4°C 59.2°F15.1°C 50% 8.0 mph NE12.9 kmh NE 12.0 mph19.3 kmh 30.08 in1018.6 mb 0.00 in0.0 mm 0.00 in0.0 mm 0.00 in0.0 mm
08:13 PM 79.5°F26.4°C 59.2°F15.1°C 50% 8.0 mph NE12.9 kmh NE 12.0 mph19.3 kmh 30.08 in1018.6 mb 0.00 in0.0 mm 0.00 in0.0 mm 0.00 in0.0 mm
08:14 PM 79.3°F26.3°C 59.1°F15.1°C 50% 8.0 mph NE12.9 kmh NE 12.0 mph19.3 kmh 30.08 in1018.6 mb 0.00 in0.0 mm 0.00 in0.0 mm 0.00 in0.0 mm
08:15 PM 79.3°F26.3°C 59.1°F15.1°C 50% 8.0 mph NE12.9 kmh NE 12.0 mph19.3 kmh 30.08 in1018.6 mb 0.00 in0.0 mm 0.00 in0.0 mm 0.00 in0.0 mm
08:16 PM 79.3°F26.3°C 59.1°F15.1°C 50% 8.0 mph NE12.9 kmh NE 14.0 mph22.5 kmh 30.08 in1018.6 mb 0.00 in0.0 mm 0.00 in0.0 mm 0.00 in0.0 mm
08:17 PM 79.2°F26.2°C 58.9°F14.9°C 50% 8.0 mph NE12.9 kmh NE 15.0 mph24.1 kmh 30.08 in1018.6 mb 0.00 in0.0 mm 0.00 in0.0 mm 0.00 in0.0 mm
08:18 PM 79.0°F26.1°C 59.3°F15.2°C 51% 8.0 mph NE12.9 kmh NE 15.0 mph24.1 kmh 30.08 in1018.6 mb 0.00 in0.0 mm 0.00 in0.0 mm 0.00 in0.0 mm
08:19 PM 79.0°F26.1°C 59.3°F15.2°C 51% 8.0 mph NE12.9 kmh NE 15.0 mph24.1 kmh 30.08 in1018.6 mb 0.00 in0.0 mm 0.00 in0.0 mm 0.00 in0.0 mm
08:20 PM 78.8°F26.0°C 59.1°F15.1°C 51% 8.0 mph NE12.9 kmh NE 15.0 mph24.1 kmh 30.09 in1019.0 mb 0.00 in0.0 mm 0.00 in0.0 mm 0.00 in0.0 mm
08:21 PM 78.6°F25.9°C 59.0°F15.0°C 51% 8.0 mph NE12.9 kmh NE 15.0 mph24.1 kmh 30.09 in1019.0 mb 0.00 in0.0 mm 0.00 in0.0 mm 0.00 in0.0 mm
08:22 PM 78.6°F25.9°C 59.0°F15.0°C 51% 8.0 mph NE12.9 kmh NE 15.0 mph24.1 kmh 30.09 in1019.0 mb 0.00 in0.0 mm 0.00 in0.0 mm 0.00 in0.0 mm
08:23 PM 78.6°F25.9°C 59.0°F15.0°C 51% 8.0 mph NE12.9 kmh NE 15.0 mph24.1 kmh 30.09 in1019.0 mb 0.00 in0.0 mm 0.00 in0.0 mm 0.00 in0.0 mm
08:24 PM 78.4°F25.8°C 58.8°F14.9°C 51% 9.0 mph NE14.5 kmh NE 15.0 mph24.1 kmh 30.08 in1018.6 mb 0.00 in0.0 mm 0.00 in0.0 mm 0.00 in0.0 mm
08:25 PM 78.4°F25.8°C 59.4°F15.2°C 52% 9.0 mph NE14.5 kmh NE 15.0 mph24.1 kmh 30.09 in1019.0 mb 0.00 in0.0 mm 0.00 in0.0 mm 0.00 in0.0 mm
08:26 PM 78.4°F25.8°C 59.4°F15.2°C 52% 9.0 mph NE14.5 kmh NE 15.0 mph24.1 kmh 30.09 in1019.0 mb 0.00 in0.0 mm 0.00 in0.0 mm 0.00 in0.0 mm
08:27 PM 78.3°F25.7°C 59.2°F15.1°C 52% 9.0 mph NE14.5 kmh NE 14.0 mph22.5 kmh 30.09 in1019.0 mb 0.00 in0.0 mm 0.00 in0.0 mm 0.00 in0.0 mm
08:28 PM 78.3°F25.7°C 59.2°F15.1°C 52% 9.0 mph NE14.5 kmh NE 14.0 mph22.5 kmh 30.09 in1019.0 mb 0.00 in0.0 mm 0.00 in0.0 mm 0.00 in0.0 mm
08:29 PM 78.3°F25.7°C 59.2°F15.1°C 52% 9.0 mph NE14.5 kmh NE 14.0 mph22.5 kmh 30.09 in1019.0 mb 0.00 in0.0 mm 0.00 in0.0 mm 0.00 in0.0 mm
08:30 PM 78.3°F25.7°C 59.2°F15.1°C 52% 9.0 mph NE14.5 kmh NE 14.0 mph22.5 kmh 30.09 in1019.0 mb 0.00 in0.0 mm 0.00 in0.0 mm 0.00 in0.0 mm
08:31 PM 78.3°F25.7°C 59.2°F15.1°C 52% 9.0 mph NE14.5 kmh NE 14.0 mph22.5 kmh 30.09 in1019.0 mb 0.00 in0.0 mm 0.00 in0.0 mm 0.00 in0.0 mm
08:32 PM 78.3°F25.7°C 59.2°F15.1°C 52% 9.0 mph NE14.5 kmh NE 14.0 mph22.5 kmh 30.09 in1019.0 mb 0.00 in0.0 mm 0.00 in0.0 mm 0.00 in0.0 mm
08:33 PM 78.1°F25.6°C 59.0°F15.0°C 52% 9.0 mph NE14.5 kmh NE 14.0 mph22.5 kmh 30.09 in1019.0 mb 0.00 in0.0 mm 0.00 in0.0 mm 0.00 in0.0 mm
08:34 PM 78.1°F25.6°C 59.0°F15.0°C 52% 9.0 mph NE14.5 kmh NE 14.0 mph22.5 kmh 30.09 in1019.0 mb 0.00 in0.0 mm 0.00 in0.0 mm 0.00 in0.0 mm
08:35 PM 77.9°F25.5°C 58.9°F14.9°C 52% 9.0 mph NE14.5 kmh NE 14.0 mph22.5 kmh 30.09 in1019.0 mb 0.00 in0.0 mm 0.00 in0.0 mm 0.00 in0.0 mm
08:36 PM 77.7°F25.4°C 58.7°F14.8°C 52% 9.0 mph NE14.5 kmh NE 12.0 mph19.3 kmh 30.09 in1019.0 mb 0.00 in0.0 mm 0.00 in0.0 mm 0.00 in0.0 mm
08:37 PM 77.7°F25.4°C 59.2°F15.1°C 53% 8.0 mph NE12.9 kmh NE 12.0 mph19.3 kmh 30.09 in1019.0 mb 0.00 in0.0 mm 0.00 in0.0 mm 0.00 in0.0 mm
08:38 PM 77.7°F25.4°C 59.2°F15.1°C 53% 8.0 mph NE12.9 kmh NE 12.0 mph19.3 kmh 30.09 in1019.0 mb 0.00 in0.0 mm 0.00 in0.0 mm 0.00 in0.0 mm
08:39 PM 77.5°F25.3°C 59.1°F15.1°C 53% 8.0 mph NE12.9 kmh NE 12.0 mph19.3 kmh 30.09 in1019.0 mb 0.00 in0.0 mm 0.00 in0.0 mm 0.00 in0.0 mm
08:40 PM 77.5°F25.3°C 59.1°F15.1°C 53% 8.0 mph NE12.9 kmh NE 12.0 mph19.3 kmh 30.09 in1019.0 mb 0.00 in0.0 mm 0.00 in0.0 mm 0.00 in0.0 mm
08:41 PM 77.5°F25.3°C 59.1°F15.1°C 53% 8.0 mph NE12.9 kmh NE 12.0 mph19.3 kmh 30.09 in1019.0 mb 0.00 in0.0 mm 0.00 in0.0 mm 0.00 in0.0 mm
08:42 PM 77.5°F25.3°C 59.1°F15.1°C 53% 8.0 mph NE12.9 kmh NE 12.0 mph19.3 kmh 30.09 in1019.0 mb 0.00 in0.0 mm 0.00 in0.0 mm 0.00 in0.0 mm
08:43 PM 77.5°F25.3°C 59.1°F15.1°C 53% 8.0 mph NE12.9 kmh NE 12.0 mph19.3 kmh 30.09 in1019.0 mb 0.00 in0.0 mm 0.00 in0.0 mm 0.00 in0.0 mm
08:44 PM 77.4°F25.2°C 58.9°F14.9°C 53% 7.0 mph NE11.3 kmh NE 12.0 mph19.3 kmh 30.09 in1019.0 mb 0.00 in0.0 mm 0.00 in0.0 mm 0.00 in0.0 mm
08:45 PM 77.4°F25.2°C 58.9°F14.9°C 53% 7.0 mph NE11.3 kmh NE 12.0 mph19.3 kmh 30.09 in1019.0 mb 0.00 in0.0 mm 0.00 in0.0 mm 0.00 in0.0 mm
08:46 PM 77.4°F25.2°C 58.9°F14.9°C 53% 7.0 mph NE11.3 kmh NE 12.0 mph19.3 kmh 30.09 in1019.0 mb 0.00 in0.0 mm 0.00 in0.0 mm 0.00 in0.0 mm
08:47 PM 77.4°F25.2°C 58.9°F14.9°C 53% 7.0 mph NE11.3 kmh NE 12.0 mph19.3 kmh 30.09 in1019.0 mb 0.00 in0.0 mm 0.00 in0.0 mm 0.00 in0.0 mm
08:48 PM 77.4°F25.2°C 58.9°F14.9°C 53% 7.0 mph NE11.3 kmh NE 12.0 mph19.3 kmh 30.09 in1019.0 mb 0.00 in0.0 mm 0.00 in0.0 mm 0.00 in0.0 mm
08:49 PM 77.4°F25.2°C 58.9°F14.9°C 53% 7.0 mph NE11.3 kmh NE 12.0 mph19.3 kmh 30.09 in1019.0 mb 0.00 in0.0 mm 0.00 in0.0 mm 0.00 in0.0 mm
08:50 PM 77.4°F25.2°C 58.9°F14.9°C 53% 7.0 mph NE11.3 kmh NE 12.0 mph19.3 kmh 30.09 in1019.0 mb 0.00 in0.0 mm 0.00 in0.0 mm 0.00 in0.0 mm
08:51 PM 77.4°F25.2°C 58.9°F14.9°C 53% 7.0 mph NE11.3 kmh NE 12.0 mph19.3 kmh 30.09 in1019.0 mb 0.00 in0.0 mm 0.00 in0.0 mm 0.00 in0.0 mm
08:52 PM 77.4°F25.2°C 58.9°F14.9°C 53% 7.0 mph NE11.3 kmh NE 12.0 mph19.3 kmh 30.09 in1019.0 mb 0.00 in0.0 mm 0.00 in0.0 mm 0.00 in0.0 mm
08:53 PM 77.4°F25.2°C 58.9°F14.9°C 53% 6.0 mph NE9.7 kmh NE 12.0 mph19.3 kmh 30.09 in1019.0 mb 0.00 in0.0 mm 0.00 in0.0 mm 0.00 in0.0 mm
08:54 PM 77.2°F25.1°C 58.7°F14.8°C 53% 6.0 mph NE9.7 kmh NE 8.0 mph12.9 kmh 30.09 in1019.0 mb 0.00 in0.0 mm 0.00 in0.0 mm 0.00 in0.0 mm
08:55 PM 77.2°F25.1°C 58.7°F14.8°C 53% 6.0 mph NE9.7 kmh NE 8.0 mph12.9 kmh 30.09 in1019.0 mb 0.00 in0.0 mm 0.00 in0.0 mm 0.00 in0.0 mm
08:56 PM 77.2°F25.1°C 59.2°F15.1°C 54% 6.0 mph NE9.7 kmh NE 9.0 mph14.5 kmh 30.09 in1019.0 mb 0.00 in0.0 mm 0.00 in0.0 mm 0.00 in0.0 mm
08:57 PM 77.0°F25.0°C 59.1°F15.1°C 54% 5.0 mph NE8.0 kmh NE 9.0 mph14.5 kmh 30.09 in1019.0 mb 0.00 in0.0 mm 0.00 in0.0 mm 0.00 in0.0 mm
08:58 PM 76.8°F24.9°C 58.9°F14.9°C 54% 5.0 mph NE8.0 kmh NE 9.0 mph14.5 kmh 30.09 in1019.0 mb 0.00 in0.0 mm 0.00 in0.0 mm 0.00 in0.0 mm
08:59 PM 76.8°F24.9°C 58.9°F14.9°C 54% 5.0 mph NE8.0 kmh NE 10.0 mph16.1 kmh 30.09 in1019.0 mb 0.00 in0.0 mm 0.00 in0.0 mm 0.00 in0.0 mm
09:00 PM 76.6°F24.8°C 58.7°F14.8°C 54% 5.0 mph NE8.0 kmh NE 11.0 mph17.7 kmh 30.09 in1019.0 mb 0.00 in0.0 mm 0.00 in0.0 mm 0.00 in0.0 mm
09:01 PM 76.6°F24.8°C 58.7°F14.8°C 54% 5.0 mph NE8.0 kmh NE 11.0 mph17.7 kmh 30.09 in1019.0 mb 0.00 in0.0 mm 0.00 in0.0 mm 0.00 in0.0 mm
09:02 PM 76.6°F24.8°C 58.7°F14.8°C 54% 5.0 mph NE8.0 kmh NE 11.0 mph17.7 kmh 30.09 in1019.0 mb 0.00 in0.0 mm 0.00 in0.0 mm 0.00 in0.0 mm
09:03 PM 76.6°F24.8°C 58.7°F14.8°C 54% 5.0 mph NE8.0 kmh NE 11.0 mph17.7 kmh 30.09 in1019.0 mb 0.00 in0.0 mm 0.00 in0.0 mm 0.00 in0.0 mm
09:04 PM 76.6°F24.8°C 58.7°F14.8°C 54% 5.0 mph NE8.0 kmh NE 11.0 mph17.7 kmh 30.09 in1019.0 mb 0.00 in0.0 mm 0.00 in0.0 mm 0.00 in0.0 mm
09:05 PM 76.5°F24.7°C 58.6°F14.8°C 54% 5.0 mph NE8.0 kmh NE 11.0 mph17.7 kmh 30.09 in1019.0 mb 0.00 in0.0 mm 0.00 in0.0 mm 0.00 in0.0 mm
09:06 PM 76.5°F24.7°C 58.6°F14.8°C 54% 5.0 mph NE8.0 kmh NE 11.0 mph17.7 kmh 30.09 in1019.0 mb 0.00 in0.0 mm 0.00 in0.0 mm 0.00 in0.0 mm
09:07 PM 76.5°F24.7°C 58.6°F14.8°C 54% 5.0 mph NE8.0 kmh NE 11.0 mph17.7 kmh 30.09 in1019.0 mb 0.00 in0.0 mm 0.00 in0.0 mm 0.00 in0.0 mm
09:08 PM 76.3°F24.6°C 58.4°F14.7°C 54% 6.0 mph NE9.7 kmh NE 11.0 mph17.7 kmh 30.09 in1019.0 mb 0.00 in0.0 mm 0.00 in0.0 mm 0.00 in0.0 mm
09:09 PM 76.3°F24.6°C 58.9°F14.9°C 55% 6.0 mph NE9.7 kmh NE 11.0 mph17.7 kmh 30.09 in1019.0 mb 0.00 in0.0 mm 0.00 in0.0 mm 0.00 in0.0 mm
09:10 PM 76.3°F24.6°C 58.9°F14.9°C 55% 6.0 mph NE9.7 kmh NE 9.0 mph14.5 kmh 30.10 in1019.3 mb 0.00 in0.0 mm 0.00 in0.0 mm 0.00 in0.0 mm
09:11 PM 76.1°F24.5°C 58.8°F14.9°C 55% 6.0 mph NE9.7 kmh NE 9.0 mph14.5 kmh 30.10 in1019.3 mb 0.00 in0.0 mm 0.00 in0.0 mm 0.00 in0.0 mm
09:12 PM 76.1°F24.5°C 58.8°F14.9°C 55% 6.0 mph NE9.7 kmh NE 10.0 mph16.1 kmh 30.10 in1019.3 mb 0.00 in0.0 mm 0.00 in0.0 mm 0.00 in0.0 mm
09:13 PM 75.9°F24.4°C 58.6°F14.8°C 55% 6.0 mph NE9.7 kmh NE 10.0 mph16.1 kmh 30.10 in1019.3 mb 0.00 in0.0 mm 0.00 in0.0 mm 0.00 in0.0 mm
09:14 PM 75.9°F24.4°C 58.6°F14.8°C 55% 6.0 mph NE9.7 kmh NE 10.0 mph16.1 kmh 30.10 in1019.3 mb 0.00 in0.0 mm 0.00 in0.0 mm 0.00 in0.0 mm
09:15 PM 75.9°F24.4°C 58.6°F14.8°C 55% 6.0 mph NE9.7 kmh NE 10.0 mph16.1 kmh 30.10 in1019.3 mb 0.00 in0.0 mm 0.00 in0.0 mm 0.00 in0.0 mm
09:16 PM 75.9°F24.4°C 58.6°F14.8°C 55% 6.0 mph NE9.7 kmh NE 10.0 mph16.1 kmh 30.10 in1019.3 mb 0.00 in0.0 mm 0.00 in0.0 mm 0.00 in0.0 mm
09:17 PM 75.9°F24.4°C 58.6°F14.8°C 55% 6.0 mph NE9.7 kmh NE 10.0 mph16.1 kmh 30.10 in1019.3 mb 0.00 in0.0 mm 0.00 in0.0 mm 0.00 in0.0 mm
09:18 PM 75.9°F24.4°C 58.6°F14.8°C 55% 6.0 mph NE9.7 kmh NE 10.0 mph16.1 kmh 30.10 in1019.3 mb 0.00 in0.0 mm 0.00 in0.0 mm 0.00 in0.0 mm
09:19 PM 75.7°F24.3°C 58.4°F14.7°C 55% 6.0 mph NE9.7 kmh NE 10.0 mph16.1 kmh 30.10 in1019.3 mb 0.00 in0.0 mm 0.00 in0.0 mm 0.00 in0.0 mm
09:20 PM 75.7°F24.3°C 58.4°F14.7°C 55% 6.0 mph NE9.7 kmh NE 10.0 mph16.1 kmh 30.10 in1019.3 mb 0.00 in0.0 mm 0.00 in0.0 mm 0.00 in0.0 mm
09:21 PM 75.7°F24.3°C 58.4°F14.7°C 55% 6.0 mph NE9.7 kmh NE 10.0 mph16.1 kmh 30.10 in1019.3 mb 0.00 in0.0 mm 0.00 in0.0 mm 0.00 in0.0 mm
09:22 PM 75.7°F24.3°C 58.4°F14.7°C 55% 6.0 mph NE9.7 kmh NE 9.0 mph14.5 kmh 30.10 in1019.3 mb 0.00 in0.0 mm 0.00 in0.0 mm 0.00 in0.0 mm
09:23 PM 75.7°F24.3°C 58.4°F14.7°C 55% 6.0 mph NE9.7 kmh NE 9.0 mph14.5 kmh 30.10 in1019.3 mb 0.00 in0.0 mm 0.00 in0.0 mm 0.00 in0.0 mm
09:24 PM 75.7°F24.3°C 58.9°F14.9°C 56% 6.0 mph NE9.7 kmh NE 9.0 mph14.5 kmh 30.10 in1019.3 mb 0.00 in0.0 mm 0.00 in0.0 mm 0.00 in0.0 mm
09:25 PM 75.7°F24.3°C 58.9°F14.9°C 56% 6.0 mph NE9.7 kmh NE 9.0 mph14.5 kmh 30.10 in1019.3 mb 0.00 in0.0 mm 0.00 in0.0 mm 0.00 in0.0 mm
09:26 PM 75.7°F24.3°C 58.9°F14.9°C 56% 5.0 mph NE8.0 kmh NE 8.0 mph12.9 kmh 30.10 in1019.3 mb 0.00 in0.0 mm 0.00 in0.0 mm 0.00 in0.0 mm
09:27 PM 75.7°F24.3°C 58.9°F14.9°C 56% 5.0 mph NE8.0 kmh NE 8.0 mph12.9 kmh 30.10 in1019.3 mb 0.00 in0.0 mm 0.00 in0.0 mm 0.00 in0.0 mm
09:28 PM 75.7°F24.3°C 58.9°F14.9°C 56% 5.0 mph NE8.0 kmh NE 8.0 mph12.9 kmh 30.10 in1019.3 mb 0.00 in0.0 mm 0.00 in0.0 mm 0.00 in0.0 mm
09:29 PM 75.7°F24.3°C 58.9°F14.9°C 56% 5.0 mph NE8.0 kmh NE 8.0 mph12.9 kmh 30.10 in1019.3 mb 0.00 in0.0 mm 0.00 in0.0 mm 0.00 in0.0 mm
09:30 PM 75.7°F24.3°C 58.9°F14.9°C 56% 5.0 mph NE8.0 kmh NE 8.0 mph12.9 kmh 30.10 in1019.3 mb 0.00 in0.0 mm 0.00 in0.0 mm 0.00 in0.0 mm
09:31 PM 75.6°F24.2°C 58.8°F14.9°C 56% 5.0 mph NE8.0 kmh NE 9.0 mph14.5 kmh 30.10 in1019.3 mb 0.00 in0.0 mm 0.00 in0.0 mm 0.00 in0.0 mm
09:32 PM 75.6°F24.2°C 58.8°F14.9°C 56% 5.0 mph NE8.0 kmh NE 9.0 mph14.5 kmh 30.10 in1019.3 mb 0.00 in0.0 mm 0.00 in0.0 mm 0.00 in0.0 mm
09:33 PM 75.6°F24.2°C 58.8°F14.9°C 56% 5.0 mph NE8.0 kmh NE 9.0 mph14.5 kmh 30.10 in1019.3 mb 0.00 in0.0 mm 0.00 in0.0 mm 0.00 in0.0 mm
09:34 PM 75.6°F24.2°C 58.8°F14.9°C 56% 5.0 mph NE8.0 kmh NE 9.0 mph14.5 kmh 30.10 in1019.3 mb 0.00 in0.0 mm 0.00 in0.0 mm 0.00 in0.0 mm
09:35 PM 75.6°F24.2°C 58.8°F14.9°C 56% 5.0 mph NE8.0 kmh NE 9.0 mph14.5 kmh 30.10 in1019.3 mb 0.00 in0.0 mm 0.00 in0.0 mm 0.00 in0.0 mm
09:36 PM 75.6°F24.2°C 58.8°F14.9°C 56% 5.0 mph NE8.0 kmh NE 9.0 mph14.5 kmh 30.10 in1019.3 mb 0.00 in0.0 mm 0.00 in0.0 mm 0.00 in0.0 mm
09:37 PM 75.6°F24.2°C 58.8°F14.9°C 56% 5.0 mph NE8.0 kmh NE 9.0 mph14.5 kmh 30.10 in1019.3 mb 0.00 in0.0 mm 0.00 in0.0 mm 0.00 in0.0 mm
09:38 PM 75.4°F24.1°C 58.6°F14.8°C 56% 5.0 mph NE8.0 kmh NE 9.0 mph14.5 kmh 30.10 in1019.3 mb 0.00 in0.0 mm 0.00 in0.0 mm 0.00 in0.0 mm
09:39 PM 75.4°F24.1°C 58.6°F14.8°C 56% 5.0 mph NE8.0 kmh NE 9.0 mph14.5 kmh 30.10 in1019.3 mb 0.00 in0.0 mm 0.00 in0.0 mm 0.00 in0.0 mm
09:40 PM 75.4°F24.1°C 58.6°F14.8°C 56% 5.0 mph NE8.0 kmh NE 9.0 mph14.5 kmh 30.10 in1019.3 mb 0.00 in0.0 mm 0.00 in0.0 mm 0.00 in0.0 mm
09:41 PM 75.4°F24.1°C 58.6°F14.8°C 56% 5.0 mph NE8.0 kmh NE 9.0 mph14.5 kmh 30.11 in1019.6 mb 0.00 in0.0 mm 0.00 in0.0 mm 0.00 in0.0 mm
09:42 PM 75.4°F24.1°C 58.6°F14.8°C 56% 5.0 mph NE8.0 kmh NE 9.0 mph14.5 kmh 30.11 in1019.6 mb 0.00 in0.0 mm 0.00 in0.0 mm 0.00 in0.0 mm
09:43 PM 75.4°F24.1°C 58.6°F14.8°C 56% 5.0 mph NE8.0 kmh NE 9.0 mph14.5 kmh 30.11 in1019.6 mb 0.00 in0.0 mm 0.00 in0.0 mm 0.00 in0.0 mm
09:44 PM 75.2°F24.0°C 58.4°F14.7°C 56% 5.0 mph NE8.0 kmh NE 9.0 mph14.5 kmh 30.11 in1019.6 mb 0.00 in0.0 mm 0.00 in0.0 mm 0.00 in0.0 mm
09:45 PM 75.2°F24.0°C 58.4°F14.7°C 56% 5.0 mph NE8.0 kmh NE 9.0 mph14.5 kmh 30.11 in1019.6 mb 0.00 in0.0 mm 0.00 in0.0 mm 0.00 in0.0 mm
09:46 PM 75.2°F24.0°C 58.4°F14.7°C 56% 5.0 mph NE8.0 kmh NE 9.0 mph14.5 kmh 30.11 in1019.6 mb 0.00 in0.0 mm 0.00 in0.0 mm 0.00 in0.0 mm
09:47 PM 75.2°F24.0°C 58.4°F14.7°C 56% 5.0 mph NE8.0 kmh NE 9.0 mph14.5 kmh 30.11 in1019.6 mb 0.00 in0.0 mm 0.00 in0.0 mm 0.00 in0.0 mm
09:48 PM 75.2°F24.0°C 58.4°F14.7°C 56% 5.0 mph NE8.0 kmh NE 9.0 mph14.5 kmh 30.11 in1019.6 mb 0.00 in0.0 mm 0.00 in0.0 mm 0.00 in0.0 mm
09:49 PM 75.0°F23.9°C 58.8°F14.9°C 57% 5.0 mph NE8.0 kmh NE 9.0 mph14.5 kmh 30.11 in1019.6 mb 0.00 in0.0 mm 0.00 in0.0 mm 0.00 in0.0 mm
09:50 PM 75.0°F23.9°C 58.8°F14.9°C 57% 5.0 mph NE8.0 kmh NE 9.0 mph14.5 kmh 30.11 in1019.6 mb 0.00 in0.0 mm 0.00 in0.0 mm 0.00 in0.0 mm
09:51 PM 75.0°F23.9°C 58.8°F14.9°C 57% 4.0 mph NE6.4 kmh NE 9.0 mph14.5 kmh 30.11 in1019.6 mb 0.00 in0.0 mm 0.00 in0.0 mm 0.00 in0.0 mm
09:52 PM 75.0°F23.9°C 58.8°F14.9°C 57% 4.0 mph NE6.4 kmh NE 9.0 mph14.5 kmh 30.11 in1019.6 mb 0.00 in0.0 mm 0.00 in0.0 mm 0.00 in0.0 mm
09:53 PM 75.0°F23.9°C 58.8°F14.9°C 57% 4.0 mph NE6.4 kmh NE 9.0 mph14.5 kmh 30.11 in1019.6 mb 0.00 in0.0 mm 0.00 in0.0 mm 0.00 in0.0 mm
09:54 PM 75.0°F23.9°C 58.8°F14.9°C 57% 4.0 mph NE6.4 kmh NE 7.0 mph11.3 kmh 30.11 in1019.6 mb 0.00 in0.0 mm 0.00 in0.0 mm 0.00 in0.0 mm
09:55 PM 75.0°F23.9°C 58.8°F14.9°C 57% 4.0 mph NE6.4 kmh NE 7.0 mph11.3 kmh 30.11 in1019.6 mb 0.00 in0.0 mm 0.00 in0.0 mm 0.00 in0.0 mm
09:56 PM 74.8°F23.8°C 58.6°F14.8°C 57% 4.0 mph NE6.4 kmh NE 7.0 mph11.3 kmh 30.11 in1019.6 mb 0.00 in0.0 mm 0.00 in0.0 mm 0.00 in0.0 mm
09:57 PM 74.8°F23.8°C 58.6°F14.8°C 57% 4.0 mph NE6.4 kmh NE 6.0 mph9.7 kmh 30.11 in1019.6 mb 0.00 in0.0 mm 0.00 in0.0 mm 0.00 in0.0 mm
09:58 PM 74.8°F23.8°C 58.6°F14.8°C 57% 4.0 mph NE6.4 kmh NE 6.0 mph9.7 kmh 30.11 in1019.6 mb 0.00 in0.0 mm 0.00 in0.0 mm 0.00 in0.0 mm
09:59 PM 74.8°F23.8°C 58.6°F14.8°C 57% 4.0 mph NE6.4 kmh NE 6.0 mph9.7 kmh 30.11 in1019.6 mb 0.00 in0.0 mm 0.00 in0.0 mm 0.00 in0.0 mm
10:00 PM 74.8°F23.8°C 58.6°F14.8°C 57% 4.0 mph NE6.4 kmh NE 5.0 mph8.0 kmh 30.11 in1019.6 mb 0.00 in0.0 mm 0.00 in0.0 mm 0.00 in0.0 mm
10:01 PM 74.8°F23.8°C 58.6°F14.8°C 57% 4.0 mph NE6.4 kmh NE 5.0 mph8.0 kmh 30.11 in1019.6 mb 0.00 in0.0 mm 0.00 in0.0 mm 0.00 in0.0 mm
10:02 PM 74.8°F23.8°C 58.6°F14.8°C 57% 4.0 mph NE6.4 kmh NE 5.0 mph8.0 kmh 30.11 in1019.6 mb 0.00 in0.0 mm 0.00 in0.0 mm 0.00 in0.0 mm
10:03 PM 74.8°F23.8°C 58.6°F14.8°C 57% 3.0 mph NE4.8 kmh NE 5.0 mph8.0 kmh 30.11 in1019.6 mb 0.00 in0.0 mm 0.00 in0.0 mm 0.00 in0.0 mm
10:04 PM 74.7°F23.7°C 58.4°F14.7°C 57% 3.0 mph NE4.8 kmh NE 6.0 mph9.7 kmh 30.11 in1019.6 mb 0.00 in0.0 mm 0.00 in0.0 mm 0.00 in0.0 mm
10:05 PM 74.7°F23.7°C 58.4°F14.7°C 57% 3.0 mph NE4.8 kmh NE 6.0 mph9.7 kmh 30.11 in1019.6 mb 0.00 in0.0 mm 0.00 in0.0 mm 0.00 in0.0 mm
10:06 PM 74.7°F23.7°C 58.4°F14.7°C 57% 3.0 mph NE4.8 kmh NE 6.0 mph9.7 kmh 30.11 in1019.6 mb 0.00 in0.0 mm 0.00 in0.0 mm 0.00 in0.0 mm
10:07 PM 74.7°F23.7°C 58.4°F14.7°C 57% 3.0 mph NE4.8 kmh NE 6.0 mph9.7 kmh 30.11 in1019.6 mb 0.00 in0.0 mm 0.00 in0.0 mm 0.00 in0.0 mm
10:08 PM 74.7°F23.7°C 58.4°F14.7°C 57% 3.0 mph NE4.8 kmh NE 6.0 mph9.7 kmh 30.11 in1019.6 mb 0.00 in0.0 mm 0.00 in0.0 mm 0.00 in0.0 mm
10:09 PM 74.7°F23.7°C 58.9°F14.9°C 58% 3.0 mph NE4.8 kmh NE 6.0 mph9.7 kmh 30.11 in1019.6 mb 0.00 in0.0 mm 0.00 in0.0 mm 0.00 in0.0 mm
10:10 PM 74.7°F23.7°C 58.9°F14.9°C 58% 3.0 mph NE4.8 kmh NE 6.0 mph9.7 kmh 30.11 in1019.6 mb 0.00 in0.0 mm 0.00 in0.0 mm 0.00 in0.0 mm
10:11 PM 74.5°F23.6°C 58.7°F14.8°C 58% 3.0 mph NE4.8 kmh NE 6.0 mph9.7 kmh 30.12 in1020.0 mb 0.00 in0.0 mm 0.00 in0.0 mm 0.00 in0.0 mm
10:12 PM 74.5°F23.6°C 58.7°F14.8°C 58% 3.0 mph NE4.8 kmh NE 6.0 mph9.7 kmh 30.12 in1020.0 mb 0.00 in0.0 mm 0.00 in0.0 mm 0.00 in0.0 mm
10:13 PM 74.5°F23.6°C 58.7°F14.8°C 58% 3.0 mph NE4.8 kmh NE 6.0 mph9.7 kmh 30.12 in1020.0 mb 0.00 in0.0 mm 0.00 in0.0 mm 0.00 in0.0 mm
10:14 PM 74.5°F23.6°C 58.7°F14.8°C 58% 3.0 mph NE4.8 kmh NE 5.0 mph8.0 kmh 30.12 in1020.0 mb 0.00 in0.0 mm 0.00 in0.0 mm 0.00 in0.0 mm
10:15 PM 74.5°F23.6°C 58.7°F14.8°C 58% 3.0 mph NE4.8 kmh NE 5.0 mph8.0 kmh 30.12 in1020.0 mb 0.00 in0.0 mm 0.00 in0.0 mm 0.00 in0.0 mm
10:16 PM 74.5°F23.6°C 58.7°F14.8°C 58% 3.0 mph NE4.8 kmh NE 5.0 mph8.0 kmh 30.12 in1020.0 mb 0.00 in0.0 mm 0.00 in0.0 mm 0.00 in0.0 mm
10:17 PM 74.5°F23.6°C 58.7°F14.8°C 58% 3.0 mph NE4.8 kmh NE 5.0 mph8.0 kmh 30.12 in1020.0 mb 0.00 in0.0 mm 0.00 in0.0 mm 0.00 in0.0 mm
10:18 PM 74.5°F23.6°C 58.7°F14.8°C 58% 3.0 mph NE4.8 kmh NE 5.0 mph8.0 kmh 30.12 in1020.0 mb 0.00 in0.0 mm 0.00 in0.0 mm 0.00 in0.0 mm
10:19 PM 74.5°F23.6°C 58.7°F14.8°C 58% 3.0 mph NE4.8 kmh NE 5.0 mph8.0 kmh 30.12 in1020.0 mb 0.00 in0.0 mm 0.00 in0.0 mm 0.00 in0.0 mm
10:20 PM 74.5°F23.6°C 58.7°F14.8°C 58% 2.0 mph NE3.2 kmh NE 5.0 mph8.0 kmh 30.12 in1020.0 mb 0.00 in0.0 mm 0.00 in0.0 mm 0.00 in0.0 mm
10:21 PM 74.5°F23.6°C 58.7°F14.8°C 58% 2.0 mph NE3.2 kmh NE 5.0 mph8.0 kmh 30.12 in1020.0 mb 0.00 in0.0 mm 0.00 in0.0 mm 0.00 in0.0 mm
10:22 PM 74.5°F23.6°C 58.7°F14.8°C 58% 2.0 mph NE3.2 kmh NE 4.0 mph6.4 kmh 30.12 in1020.0 mb 0.00 in0.0 mm 0.00 in0.0 mm 0.00 in0.0 mm
10:23 PM 74.5°F23.6°C 58.7°F14.8°C 58% 2.0 mph NE3.2 kmh NE 3.0 mph4.8 kmh 30.12 in1020.0 mb 0.00 in0.0 mm 0.00 in0.0 mm 0.00 in0.0 mm
10:24 PM 74.3°F23.5°C 58.6°F14.8°C 58% 2.0 mph NE3.2 kmh NE 3.0 mph4.8 kmh 30.12 in1020.0 mb 0.00 in0.0 mm 0.00 in0.0 mm 0.00 in0.0 mm
10:25 PM 74.3°F23.5°C 58.6°F14.8°C 58% 2.0 mph NE3.2 kmh NE 3.0 mph4.8 kmh 30.12 in1020.0 mb 0.00 in0.0 mm 0.00 in0.0 mm 0.00 in0.0 mm
10:26 PM 74.3°F23.5°C 58.6°F14.8°C 58% 2.0 mph NE3.2 kmh NE 4.0 mph6.4 kmh 30.12 in1020.0 mb 0.00 in0.0 mm 0.00 in0.0 mm 0.00 in0.0 mm
10:27 PM 74.3°F23.5°C 58.6°F14.8°C 58% 2.0 mph NE3.2 kmh NE 4.0 mph6.4 kmh 30.12 in1020.0 mb 0.00 in0.0 mm 0.00 in0.0 mm 0.00 in0.0 mm
10:28 PM 74.3°F23.5°C 58.6°F14.8°C 58% 2.0 mph NE3.2 kmh NE 4.0 mph6.4 kmh 30.12 in1020.0 mb 0.00 in0.0 mm 0.00 in0.0 mm 0.00 in0.0 mm
10:29 PM 74.3°F23.5°C 58.6°F14.8°C 58% 2.0 mph NE3.2 kmh NE 4.0 mph6.4 kmh 30.12 in1020.0 mb 0.00 in0.0 mm 0.00 in0.0 mm 0.00 in0.0 mm
10:30 PM 74.3°F23.5°C 58.6°F14.8°C 58% 2.0 mph NE3.2 kmh NE 4.0 mph6.4 kmh 30.12 in1020.0 mb 0.00 in0.0 mm 0.00 in0.0 mm 0.00 in0.0 mm
10:31 PM 74.3°F23.5°C 58.6°F14.8°C 58% 2.0 mph NE3.2 kmh NE 4.0 mph6.4 kmh 30.12 in1020.0 mb 0.00 in0.0 mm 0.00 in0.0 mm 0.00 in0.0 mm
10:32 PM 74.3°F23.5°C 58.6°F14.8°C 58% 2.0 mph NE3.2 kmh NE 4.0 mph6.4 kmh 30.12 in1020.0 mb 0.00 in0.0 mm 0.00 in0.0 mm 0.00 in0.0 mm
10:33 PM 74.3°F23.5°C 58.6°F14.8°C 58% 2.0 mph NE3.2 kmh NE 4.0 mph6.4 kmh 30.12 in1020.0 mb 0.00 in0.0 mm 0.00 in0.0 mm 0.00 in0.0 mm
10:34 PM 74.3°F23.5°C 58.6°F14.8°C 58% 2.0 mph NE3.2 kmh NE 4.0 mph6.4 kmh 30.12 in1020.0 mb 0.00 in0.0 mm 0.00 in0.0 mm 0.00 in0.0 mm
10:35 PM 74.3°F23.5°C 58.6°F14.8°C 58% 2.0 mph NE3.2 kmh NE 4.0 mph6.4 kmh 30.12 in1020.0 mb 0.00 in0.0 mm 0.00 in0.0 mm 0.00 in0.0 mm
10:36 PM 74.3°F23.5°C 58.6°F14.8°C 58% 2.0 mph NE3.2 kmh NE 4.0 mph6.4 kmh 30.12 in1020.0 mb 0.00 in0.0 mm 0.00 in0.0 mm 0.00 in0.0 mm
10:37 PM 74.3°F23.5°C 58.6°F14.8°C 58% 2.0 mph NE3.2 kmh NE 4.0 mph6.4 kmh 30.12 in1020.0 mb 0.00 in0.0 mm 0.00 in0.0 mm 0.00 in0.0 mm
10:38 PM 74.3°F23.5°C 58.6°F14.8°C 58% 2.0 mph NE3.2 kmh NE 5.0 mph8.0 kmh 30.12 in1020.0 mb 0.00 in0.0 mm 0.00 in0.0 mm 0.00 in0.0 mm
10:39 PM 74.3°F23.5°C 58.6°F14.8°C 58% 2.0 mph NE3.2 kmh NE 5.0 mph8.0 kmh 30.12 in1020.0 mb 0.00 in0.0 mm 0.00 in0.0 mm 0.00 in0.0 mm
10:40 PM 74.3°F23.5°C 58.6°F14.8°C 58% 2.0 mph NE3.2 kmh NE 5.0 mph8.0 kmh 30.12 in1020.0 mb 0.00 in0.0 mm 0.00 in0.0 mm 0.00 in0.0 mm
10:41 PM 74.1°F23.4°C 58.4°F14.7°C 58% 2.0 mph NE3.2 kmh NE 5.0 mph8.0 kmh 30.12 in1020.0 mb 0.00 in0.0 mm 0.00 in0.0 mm 0.00 in0.0 mm
10:42 PM 74.1°F23.4°C 58.4°F14.7°C 58% 2.0 mph NE3.2 kmh NE 5.0 mph8.0 kmh 30.12 in1020.0 mb 0.00 in0.0 mm 0.00 in0.0 mm 0.00 in0.0 mm
10:43 PM 74.1°F23.4°C 58.4°F14.7°C 58% 2.0 mph NE3.2 kmh NE 5.0 mph8.0 kmh 30.12 in1020.0 mb 0.00 in0.0 mm 0.00 in0.0 mm 0.00 in0.0 mm
10:44 PM 74.1°F23.4°C 58.4°F14.7°C 58% 2.0 mph NE3.2 kmh NE 5.0 mph8.0 kmh 30.12 in1020.0 mb 0.00 in0.0 mm 0.00 in0.0 mm 0.00 in0.0 mm
10:45 PM 74.1°F23.4°C 58.4°F14.7°C 58% 2.0 mph NE3.2 kmh NE 5.0 mph8.0 kmh 30.12 in1020.0 mb 0.00 in0.0 mm 0.00 in0.0 mm 0.00 in0.0 mm